Observation data for Fort Lancaster on 03/11/2018      Previous  Date  Next       Current Mesonet Observations  Soil Data  Daily Summary Page  Observations in Plain Language
KLA1 110600Z 31004KT 23/M04 A2986 RMK A01 T02311044  RH  016%=      5-min Rain = 0
KLA1 110601Z 31004KT 23/M04 A2986 RMK A01 T02311043  RH  016%=      5-min Rain = 0
KLA1 110602Z 31004KT 23/M04 A2986 RMK A01 T02311042  RH  016%=      5-min Rain = 0
KLA1 110603Z 30004KT 23/M04 A2986 RMK A01 T02311042  RH  016%=      5-min Rain = 0
KLA1 110604Z 28003KT 23/M04 A2986 RMK A01 T02301042  RH  016%=      5-min Rain = 0
KLA1 110605Z 26002KT 23/M04 A2986 RMK A01 T02291039  RH  017%=      5-min Rain = 0
KLA1 110606Z 26003KT 22/M04 A2986 RMK A01 T02241036  RH  017%=      5-min Rain = 0
KLA1 110607Z 27003KT 22/M04 A2986 RMK A01 T02201036  RH  018%=      5-min Rain = 0
KLA1 110608Z 28003KT 22/M04 A2986 RMK A01 T02171037  RH  018%=      5-min Rain = 0
KLA1 110609Z 28003KT 22/M04 A2986 RMK A01 T02161037  RH  018%=      5-min Rain = 0
KLA1 110610Z 26003KT 22/M04 A2987 RMK A01 T02151037  RH  018%=      5-min Rain = 0
KLA1 110611Z 26003KT 21/M04 A2987 RMK A01 T02141037  RH  018%=      5-min Rain = 0
KLA1 110612Z 27003KT 21/M04 A2987 RMK A01 T02131037  RH  018%=      5-min Rain = 0
KLA1 110613Z 26003KT 21/M04 A2987 RMK A01 T02131036  RH  018%=      5-min Rain = 0
KLA1 110614Z 27002KT 21/M04 A2987 RMK A01 T02121036  RH  019%=      5-min Rain = 0
KLA1 110615Z 28002KT 21/M04 A2987 RMK A01 T02111037  RH  019%=      5-min Rain = 0
KLA1 110616Z 28002KT 21/M04 A2987 RMK A01 T02111037  RH  019%=      5-min Rain = 0
KLA1 110617Z 29002KT 21/M04 A2987 RMK A01 T02111037  RH  019%=      5-min Rain = 0
KLA1 110618Z 27002KT 21/M04 A2987 RMK A01 T02111036  RH  019%=      5-min Rain = 0
KLA1 110619Z 29002KT 21/M04 A2987 RMK A01 T02111036  RH  019%=      5-min Rain = 0
KLA1 110620Z 26002KT 21/M04 A2987 RMK A01 T02111036  RH  019%=      5-min Rain = 0
KLA1 110621Z 24001KT 21/M04 A2987 RMK A01 T02101036  RH  019%=      5-min Rain = 0
KLA1 110622Z 24001KT 21/M04 A2987 RMK A01 T02111035  RH  019%=      5-min Rain = 0
KLA1 110623Z 24001KT 21/M04 A2987 RMK A01 T02111036  RH  019%=      5-min Rain = 0
KLA1 110624Z 24002KT 21/M04 A2987 RMK A01 T02111035  RH  019%=      5-min Rain = 0
KLA1 110625Z 27001KT 21/M04 A2987 RMK A01 T02111037  RH  019%=      5-min Rain = 0
KLA1 110626Z 33000KT 21/M04 A2987 RMK A01 T02111038  RH  018%=      5-min Rain = 0
KLA1 110627Z 00000KT 21/M04 A2987 RMK A01 T02111039  RH  018%=      5-min Rain = 0
KLA1 110628Z 26000KT 21/M04 A2987 RMK A01 T02111037  RH  019%=      5-min Rain = 0
KLA1 110629Z 27001KT 21/M04 A2987 RMK A01 T02121039  RH  018%=      5-min Rain = 0
KLA1 110630Z 25001KT 21/M03 A2987 RMK A01 T02131034  RH  019%=      5-min Rain = 0
KLA1 110631Z 26002KT 21/M04 A2987 RMK A01 T02131037  RH  018%=      5-min Rain = 0
KLA1 110632Z 28002KT 21/M04 A2987 RMK A01 T02131037  RH  018%=      5-min Rain = 0
KLA1 110633Z 28002KT 21/M04 A2986 RMK A01 T02141038  RH  018%=      5-min Rain = 0
KLA1 110634Z 28003KT 22/M04 A2986 RMK A01 T02161036  RH  018%=      5-min Rain = 0
KLA1 110635Z 28003KT 22/M04 A2986 RMK A01 T02171035  RH  018%=      5-min Rain = 0
KLA1 110636Z 28001KT 22/M04 A2986 RMK A01 T02181035  RH  018%=      5-min Rain = 0
KLA1 110637Z 26001KT 22/M04 A2986 RMK A01 T02191035  RH  018%=      5-min Rain = 0
KLA1 110638Z 30002KT 22/M04 A2986 RMK A01 T02211035  RH  018%=      5-min Rain = 0
KLA1 110639Z 29003KT 22/M03 A2986 RMK A01 T02221032  RH  018%=      5-min Rain = 0
KLA1 110640Z 29005KT 22/M03 A2986 RMK A01 T02221032  RH  018%=      5-min Rain = 0
KLA1 110641Z 29005KT 22/M03 A2986 RMK A01 T02231030  RH  018%=      5-min Rain = 0
KLA1 110642Z 29005KT 23/M03 A2986 RMK A01 T02261028  RH  018%=      5-min Rain = 0
KLA1 110643Z 30005KT 23/M03 A2986 RMK A01 T02281027  RH  018%=      5-min Rain = 0
KLA1 110644Z 30005KT 23/M03 A2986 RMK A01 T02291027  RH  018%=      5-min Rain = 0
KLA1 110645Z 30006KT 23/M03 A2986 RMK A01 T02311026  RH  018%=      5-min Rain = 0
KLA1 110646Z 29005KT 23/M03 A2986 RMK A01 T02331025  RH  018%=      5-min Rain = 0
KLA1 110647Z 30006KT 23/M03 A2986 RMK A01 T02341025  RH  018%=      5-min Rain = 0
KLA1 110648Z 29006KT 24/M03 A2986 RMK A01 T02361025  RH  017%=      5-min Rain = 0
KLA1 110649Z 29006KT 24/M03 A2986 RMK A01 T02381025  RH  017%=      5-min Rain = 0
KLA1 110650Z 29007KT 24/M03 A2986 RMK A01 T02391025  RH  017%=      5-min Rain = 0
KLA1 110651Z 28006KT 24/M02 A2986 RMK A01 T02401024  RH  017%=      5-min Rain = 0
KLA1 110652Z 28008KT 24/M02 A2986 RMK A01 T02401024  RH  017%=      5-min Rain = 0
KLA1 110653Z 28007KT 24/M03 A2986 RMK A01 T02411025  RH  017%=      5-min Rain = 0
KLA1 110654Z 28007KT 24/M03 A2986 RMK A01 T02431026  RH  017%=      5-min Rain = 0
KLA1 110655Z 28007KT 25/M03 A2986 RMK A01 T02451026  RH  016%=      5-min Rain = 0
KLA1 110656Z 28006KT 25/M03 A2986 RMK A01 T02451026  RH  016%=      5-min Rain = 0
KLA1 110657Z 29006KT 25/M03 A2986 RMK A01 T02451027  RH  016%=      5-min Rain = 0
KLA1 110658Z 28007KT 25/M03 A2986 RMK A01 T02461027  RH  016%=      5-min Rain = 0
KLA1 110659Z 28007KT 25/M03 A2986 RMK A01 T02471028  RH  016%=      5-min Rain = 0
KLA1 110700Z 28007KT 25/M03 A2986 RMK A01 T02481027  RH  016%=      5-min Rain = 0
KLA1 110701Z 28007KT 25/M03 A2986 RMK A01 T02481027  RH  016%=      5-min Rain = 0
KLA1 110702Z 28007KT 25/M03 A2986 RMK A01 T02481027  RH  016%=      5-min Rain = 0
KLA1 110703Z 28007KT 25/M03 A2986 RMK A01 T02481027  RH  016%=      5-min Rain = 0
KLA1 110704Z 28006KT 25/M03 A2986 RMK A01 T02471027  RH  016%=      5-min Rain = 0
KLA1 110705Z 28006KT 25/M03 A2987 RMK A01 T02471027  RH  016%=      5-min Rain = 0
KLA1 110706Z 28007KT 25/M03 A2987 RMK A01 T02461027  RH  016%=      5-min Rain = 0
KLA1 110707Z 27007KT 25/M03 A2987 RMK A01 T02451028  RH  016%=      5-min Rain = 0
KLA1 110708Z 27006KT 25/M03 A2987 RMK A01 T02451029  RH  016%=      5-min Rain = 0
KLA1 110709Z 28007KT 25/M03 A2987 RMK A01 T02461029  RH  016%=      5-min Rain = 0
KLA1 110710Z 28006KT 25/M03 A2987 RMK A01 T02461028  RH  016%=      5-min Rain = 0
KLA1 110711Z 28006KT 25/M03 A2987 RMK A01 T02461029  RH  016%=      5-min Rain = 0
KLA1 110712Z 28006KT 25/M03 A2987 RMK A01 T02461028  RH  016%=      5-min Rain = 0
KLA1 110713Z 28007KT 25/M03 A2987 RMK A01 T02451029  RH  016%=      5-min Rain = 0
KLA1 110714Z 28006KT 25/M03 A2987 RMK A01 T02451028  RH  016%=      5-min Rain = 0
KLA1 110715Z 28006KT 24/M03 A2987 RMK A01 T02441029  RH  016%=      5-min Rain = 0
KLA1 110716Z 28006KT 25/M03 A2988 RMK A01 T02451029  RH  016%=      5-min Rain = 0
KLA1 110717Z 28007KT 24/M03 A2988 RMK A01 T02441029  RH  016%=      5-min Rain = 0
KLA1 110718Z 28007KT 24/M03 A2988 RMK A01 T02441029  RH  016%=      5-min Rain = 0
KLA1 110719Z 28006KT 24/M03 A2988 RMK A01 T02441029  RH  016%=      5-min Rain = 0
KLA1 110720Z 28007KT 24/M03 A2988 RMK A01 T02441030  RH  016%=      5-min Rain = 0
KLA1 110721Z 28007KT 24/M03 A2988 RMK A01 T02441030  RH  016%=      5-min Rain = 0
KLA1 110722Z 28007KT 24/M03 A2988 RMK A01 T02441031  RH  016%=      5-min Rain = 0
KLA1 110723Z 28006KT 25/M03 A2988 RMK A01 T02451030  RH  016%=      5-min Rain = 0
KLA1 110724Z 28006KT 25/M03 A2988 RMK A01 T02451031  RH  016%=      5-min Rain = 0
KLA1 110725Z 28006KT 25/M03 A2988 RMK A01 T02451032  RH  016%=      5-min Rain = 0
KLA1 110726Z 28006KT 25/M03 A2988 RMK A01 T02451032  RH  016%=      5-min Rain = 0
KLA1 110727Z 29006KT 25/M03 A2988 RMK A01 T02451032  RH  016%=      5-min Rain = 0
KLA1 110728Z 30006KT 25/M03 A2988 RMK A01 T02451031  RH  016%=      5-min Rain = 0
KLA1 110729Z 30006KT 24/M03 A2988 RMK A01 T02441032  RH  016%=      5-min Rain = 0
KLA1 110730Z 29007KT 24/M03 A2988 RMK A01 T02441032  RH  016%=      5-min Rain = 0
KLA1 110731Z 29007KT 24/M03 A2988 RMK A01 T02431031  RH  016%=      5-min Rain = 0
KLA1 110732Z 28007KT 24/M03 A2988 RMK A01 T02431032  RH  016%=      5-min Rain = 0
KLA1 110733Z 29006KT 24/M03 A2988 RMK A01 T02431032  RH  016%=      5-min Rain = 0
KLA1 110734Z 28006KT 24/M03 A2988 RMK A01 T02431032  RH  016%=      5-min Rain = 0
KLA1 110735Z 30007KT 24/M03 A2987 RMK A01 T02431032  RH  016%=      5-min Rain = 0
KLA1 110736Z 31007KT 24/M03 A2987 RMK A01 T02431033  RH  016%=      5-min Rain = 0
KLA1 110737Z 31006KT 24/M03 A2987 RMK A01 T02441033  RH  016%=      5-min Rain = 0
KLA1 110738Z 31006KT 25/M03 A2987 RMK A01 T02451034  RH  015%=      5-min Rain = 0
KLA1 110739Z 31006KT 25/M03 A2987 RMK A01 T02461034  RH  015%=      5-min Rain = 0
KLA1 110740Z 31006KT 25/M03 A2987 RMK A01 T02471034  RH  015%=      5-min Rain = 0
KLA1 110741Z 31006KT 25/M03 A2987 RMK A01 T02471033  RH  015%=      5-min Rain = 0
KLA1 110742Z 30007KT 25/M03 A2987 RMK A01 T02461034  RH  015%=      5-min Rain = 0
KLA1 110743Z 31007KT 25/M03 A2987 RMK A01 T02461034  RH  015%=      5-min Rain = 0
KLA1 110744Z 31006KT 25/M04 A2987 RMK A01 T02461035  RH  015%=      5-min Rain = 0
KLA1 110745Z 31005KT 25/M04 A2986 RMK A01 T02471035  RH  015%=      5-min Rain = 0
KLA1 110746Z 31006KT 25/M04 A2986 RMK A01 T02471035  RH  015%=      5-min Rain = 0
KLA1 110747Z 30009KT 25/M04 A2987 RMK A01 T02471035  RH  015%=      5-min Rain = 0
KLA1 110748Z 30009KT 25/M04 A2987 RMK A01 T02461035  RH  015%=      5-min Rain = 0
KLA1 110749Z 30009KT 25/M04 A2987 RMK A01 T02461035  RH  015%=      5-min Rain = 0
KLA1 110750Z 29009KT 25/M04 A2987 RMK A01 T02461035  RH  015%=      5-min Rain = 0
KLA1 110751Z 30008KT 25/M04 A2987 RMK A01 T02471035  RH  015%=      5-min Rain = 0
KLA1 110752Z 29009KT 25/M04 A2987 RMK A01 T02461036  RH  015%=      5-min Rain = 0
KLA1 110753Z 29010KT 25/M04 A2987 RMK A01 T02461036  RH  015%=      5-min Rain = 0
KLA1 110754Z 30008KT 25/M04 A2987 RMK A01 T02471036  RH  015%=      5-min Rain = 0
KLA1 110755Z 30007KT 25/M04 A2987 RMK A01 T02471036  RH  015%=      5-min Rain = 0
KLA1 110756Z 30009KT 25/M04 A2987 RMK A01 T02461037  RH  015%=      5-min Rain = 0
KLA1 110757Z 30008KT 25/M04 A2987 RMK A01 T02461037  RH  015%=      5-min Rain = 0
KLA1 110758Z 30007KT 25/M04 A2987 RMK A01 T02461038  RH  015%=      5-min Rain = 0
KLA1 110759Z 30008KT 25/M04 A2987 RMK A01 T02451037  RH  015%=      5-min Rain = 0
KLA1 110800Z 30007KT 25/M04 A2987 RMK A01 T02451037  RH  015%=      5-min Rain = 0
KLA1 110801Z 29007KT 24/M04 A2987 RMK A01 T02441037  RH  015%=      5-min Rain = 0
KLA1 110802Z 29007KT 24/M04 A2987 RMK A01 T02441037  RH  015%=      5-min Rain = 0
KLA1 110803Z 29008KT 24/M04 A2987 RMK A01 T02431038  RH  015%=      5-min Rain = 0
KLA1 110804Z 30009KT 24/M04 A2987 RMK A01 T02431038  RH  015%=      5-min Rain = 0
KLA1 110805Z 30009KT 24/M04 A2987 RMK A01 T02431039  RH  015%=      5-min Rain = 0
KLA1 110806Z 30008KT 24/M04 A2987 RMK A01 T02431040  RH  015%=      5-min Rain = 0
KLA1 110807Z 30008KT 24/M04 A2987 RMK A01 T02431039  RH  015%=      5-min Rain = 0
KLA1 110808Z 30009KT 24/M04 A2987 RMK A01 T02431040  RH  015%=      5-min Rain = 0
KLA1 110809Z 30008KT 24/M04 A2987 RMK A01 T02431040  RH  015%=      5-min Rain = 0
KLA1 110810Z 30008KT 24/M04 A2987 RMK A01 T02431040  RH  015%=      5-min Rain = 0
KLA1 110811Z 29008KT 24/M04 A2987 RMK A01 T02431041  RH  015%=      5-min Rain = 0
KLA1 110812Z 29008KT 24/M04 A2987 RMK A01 T02421041  RH  015%=      5-min Rain = 0
KLA1 110813Z 29008KT 24/M04 A2987 RMK A01 T02421040  RH  015%=      5-min Rain = 0
KLA1 110814Z 29007KT 24/M04 A2987 RMK A01 T02411040  RH  015%=      5-min Rain = 0
KLA1 110815Z 30007KT 24/M04 A2987 RMK A01 T02401040  RH  015%=      5-min Rain = 0
KLA1 110816Z 29007KT 24/M04 A2987 RMK A01 T02401041  RH  015%=      5-min Rain = 0
KLA1 110817Z 29007KT 24/M04 A2987 RMK A01 T02401041  RH  015%=      5-min Rain = 0
KLA1 110818Z 29007KT 24/M04 A2987 RMK A01 T02401041  RH  015%=      5-min Rain = 0
KLA1 110819Z 30006KT 24/M04 A2987 RMK A01 T02401041  RH  015%=      5-min Rain = 0
KLA1 110820Z 30007KT 24/M04 A2986 RMK A01 T02391041  RH  015%=      5-min Rain = 0
KLA1 110821Z 30006KT 24/M04 A2987 RMK A01 T02391041  RH  015%=      5-min Rain = 0
KLA1 110822Z 30006KT 24/M04 A2987 RMK A01 T02381041  RH  015%=      5-min Rain = 0
KLA1 110823Z 31005KT 24/M04 A2987 RMK A01 T02371041  RH  015%=      5-min Rain = 0
KLA1 110824Z 31006KT 24/M04 A2986 RMK A01 T02371041  RH  015%=      5-min Rain = 0
KLA1 110825Z 31005KT 24/M04 A2986 RMK A01 T02361041  RH  015%=      5-min Rain = 0
KLA1 110826Z 32005KT 24/M04 A2986 RMK A01 T02361041  RH  016%=      5-min Rain = 0
KLA1 110827Z 32005KT 24/M04 A2986 RMK A01 T02361041  RH  016%=      5-min Rain = 0
KLA1 110828Z 32006KT 24/M04 A2986 RMK A01 T02351041  RH  016%=      5-min Rain = 0
KLA1 110829Z 33004KT 24/M04 A2986 RMK A01 T02351041  RH  016%=      5-min Rain = 0
KLA1 110830Z 34004KT 24/M04 A2986 RMK A01 T02351041  RH  016%=      5-min Rain = 0
KLA1 110831Z 32005KT 24/M04 A2986 RMK A01 T02351042  RH  016%=      5-min Rain = 0
KLA1 110832Z 32005KT 24/M04 A2986 RMK A01 T02351041  RH  016%=      5-min Rain = 0
KLA1 110833Z 32005KT 24/M04 A2986 RMK A01 T02351041  RH  016%=      5-min Rain = 0
KLA1 110834Z 32005KT 24/M04 A2986 RMK A01 T02351041  RH  016%=      5-min Rain = 0
KLA1 110835Z 31004KT 24/M04 A2986 RMK A01 T02351041  RH  016%=      5-min Rain = 0
KLA1 110836Z 30005KT 24/M04 A2986 RMK A01 T02351041  RH  016%=      5-min Rain = 0
KLA1 110837Z 30005KT 24/M04 A2986 RMK A01 T02351041  RH  016%=      5-min Rain = 0
KLA1 110838Z 30005KT 24/M04 A2986 RMK A01 T02351041  RH  016%=      5-min Rain = 0
KLA1 110839Z 30005KT 23/M04 A2986 RMK A01 T02341040  RH  016%=      5-min Rain = 0
KLA1 110840Z 30005KT 23/M04 A2986 RMK A01 T02331040  RH  016%=      5-min Rain = 0
KLA1 110841Z 31005KT 23/M04 A2986 RMK A01 T02321040  RH  016%=      5-min Rain = 0
KLA1 110842Z 31005KT 23/M04 A2986 RMK A01 T02311040  RH  016%=      5-min Rain = 0
KLA1 110843Z 32005KT 23/M04 A2986 RMK A01 T02311040  RH  016%=      5-min Rain = 0
KLA1 110844Z 31005KT 23/M04 A2986 RMK A01 T02311040  RH  016%=      5-min Rain = 0
KLA1 110845Z 30005KT 23/M04 A2986 RMK A01 T02311040  RH  016%=      5-min Rain = 0
KLA1 110846Z 30005KT 23/M04 A2986 RMK A01 T02311040  RH  016%=      5-min Rain = 0
KLA1 110847Z 30005KT 23/M04 A2986 RMK A01 T02311039  RH  016%=      5-min Rain = 0
KLA1 110848Z 30006KT 23/M04 A2986 RMK A01 T02291040  RH  016%=      5-min Rain = 0
KLA1 110849Z 31006KT 23/M04 A2986 RMK A01 T02291040  RH  016%=      5-min Rain = 0
KLA1 110850Z 31005KT 23/M04 A2986 RMK A01 T02291039  RH  016%=      5-min Rain = 0
KLA1 110851Z 30005KT 23/M04 A2986 RMK A01 T02291040  RH  016%=      5-min Rain = 0
KLA1 110852Z 30005KT 23/M04 A2986 RMK A01 T02291040  RH  016%=      5-min Rain = 0
KLA1 110853Z 30005KT 23/M04 A2986 RMK A01 T02291040  RH  016%=      5-min Rain = 0
KLA1 110854Z 31006KT 23/M04 A2986 RMK A01 T02301040  RH  016%=      5-min Rain = 0
KLA1 110855Z 32006KT 23/M04 A2986 RMK A01 T02301040  RH  016%=      5-min Rain = 0
KLA1 110856Z 31005KT 23/M04 A2986 RMK A01 T02301040  RH  016%=      5-min Rain = 0
KLA1 110857Z 30005KT 23/M04 A2986 RMK A01 T02301041  RH  016%=      5-min Rain = 0
KLA1 110858Z 30005KT 23/M04 A2986 RMK A01 T02311040  RH  016%=      5-min Rain = 0
KLA1 110859Z 31005KT 23/M04 A2986 RMK A01 T02311040  RH  016%=      5-min Rain = 0
KLA1 110900Z 32005KT 23/M04 A2986 RMK A01 T02311040  RH  016%=      5-min Rain = 0
KLA1 110901Z 33005KT 23/M04 A2986 RMK A01 T02311040  RH  016%=      5-min Rain = 0
KLA1 110902Z 34005KT 23/M04 A2986 RMK A01 T02311040  RH  016%=      5-min Rain = 0
KLA1 110903Z 34004KT 23/M04 A2986 RMK A01 T02311040  RH  016%=      5-min Rain = 0
KLA1 110904Z 34004KT 23/M04 A2986 RMK A01 T02311040  RH  016%=      5-min Rain = 0
KLA1 110905Z 34004KT 23/M04 A2986 RMK A01 T02311040  RH  016%=      5-min Rain = 0
KLA1 110906Z 33004KT 23/M04 A2986 RMK A01 T02311040  RH  016%=      5-min Rain = 0
KLA1 110907Z 32004KT 23/M04 A2986 RMK A01 T02301040  RH  016%=      5-min Rain = 0
KLA1 110908Z 33004KT 23/M04 A2986 RMK A01 T02301040  RH  016%=      5-min Rain = 0
KLA1 110909Z 32003KT 23/M04 A2986 RMK A01 T02301040  RH  016%=      5-min Rain = 0
KLA1 110910Z 33004KT 23/M04 A2986 RMK A01 T02301040  RH  016%=      5-min Rain = 0
KLA1 110911Z 33004KT 23/M04 A2986 RMK A01 T02301040  RH  016%=      5-min Rain = 0
KLA1 110912Z 33005KT 23/M04 A2986 RMK A01 T02291040  RH  016%=      5-min Rain = 0
KLA1 110913Z 33006KT 23/M04 A2986 RMK A01 T02291040  RH  016%=      5-min Rain = 0
KLA1 110914Z 33005KT 23/M04 A2986 RMK A01 T02291040  RH  016%=      5-min Rain = 0
KLA1 110915Z 31005KT 23/M04 A2987 RMK A01 T02291039  RH  016%=      5-min Rain = 0
KLA1 110916Z 31004KT 23/M04 A2987 RMK A01 T02291039  RH  016%=      5-min Rain = 0
KLA1 110917Z 30005KT 23/M04 A2987 RMK A01 T02281039  RH  017%=      5-min Rain = 0
KLA1 110918Z 29006KT 23/M04 A2987 RMK A01 T02271038  RH  017%=      5-min Rain = 0
KLA1 110919Z 29008KT 23/M04 A2987 RMK A01 T02261038  RH  017%=      5-min Rain = 0
KLA1 110920Z 28007KT 23/M04 A2987 RMK A01 T02271039  RH  017%=      5-min Rain = 0
KLA1 110921Z 28008KT 23/M04 A2987 RMK A01 T02281039  RH  016%=      5-min Rain = 0
KLA1 110922Z 28009KT 23/M04 A2987 RMK A01 T02301039  RH  016%=      5-min Rain = 0
KLA1 110923Z 28010KT 23/M04 A2987 RMK A01 T02311039  RH  016%=      5-min Rain = 0
KLA1 110924Z 28010KT 23/M04 A2987 RMK A01 T02321040  RH  016%=      5-min Rain = 0
KLA1 110925Z 29009KT 23/M04 A2987 RMK A01 T02331040  RH  016%=      5-min Rain = 0
KLA1 110926Z 28008KT 23/M04 A2987 RMK A01 T02341039  RH  016%=      5-min Rain = 0
KLA1 110927Z 28008KT 23/M04 A2987 RMK A01 T02341039  RH  016%=      5-min Rain = 0
KLA1 110928Z 28008KT 23/M04 A2987 RMK A01 T02341038  RH  016%=      5-min Rain = 0
KLA1 110929Z 28006KT 23/M04 A2987 RMK A01 T02341039  RH  016%=      5-min Rain = 0
KLA1 110930Z 28006KT 23/M04 A2987 RMK A01 T02331039  RH  016%=      5-min Rain = 0
KLA1 110931Z 28007KT 23/M04 A2987 RMK A01 T02321038  RH  016%=      5-min Rain = 0
KLA1 110932Z 28007KT 23/M04 A2987 RMK A01 T02321039  RH  016%=      5-min Rain = 0
KLA1 110933Z 28007KT 23/M04 A2987 RMK A01 T02321038  RH  016%=      5-min Rain = 0
KLA1 110934Z 28008KT 23/M04 A2987 RMK A01 T02321038  RH  016%=      5-min Rain = 0
KLA1 110935Z 29007KT 23/M04 A2987 RMK A01 T02311038  RH  016%=      5-min Rain = 0
KLA1 110936Z 29007KT 23/M04 A2987 RMK A01 T02311038  RH  016%=      5-min Rain = 0
KLA1 110937Z 29007KT 23/M04 A2987 RMK A01 T02311038  RH  016%=      5-min Rain = 0
KLA1 110938Z 29006KT 23/M04 A2987 RMK A01 T02311038  RH  016%=      5-min Rain = 0
KLA1 110939Z 30005KT 23/M04 A2987 RMK A01 T02301037  RH  017%=      5-min Rain = 0
KLA1 110940Z 30006KT 23/M04 A2987 RMK A01 T02291037  RH  017%=      5-min Rain = 0
KLA1 110941Z 30005KT 23/M04 A2987 RMK A01 T02281037  RH  017%=      5-min Rain = 0
KLA1 110942Z 31005KT 23/M04 A2987 RMK A01 T02281037  RH  017%=      5-min Rain = 0
KLA1 110943Z 32004KT 23/M04 A2987 RMK A01 T02271037  RH  017%=      5-min Rain = 0
KLA1 110944Z 31004KT 23/M04 A2987 RMK A01 T02271037  RH  017%=      5-min Rain = 0
KLA1 110945Z 32004KT 23/M04 A2987 RMK A01 T02271037  RH  017%=      5-min Rain = 0
KLA1 110946Z 33003KT 23/M04 A2987 RMK A01 T02271037  RH  017%=      5-min Rain = 0
KLA1 110947Z 34003KT 23/M04 A2987 RMK A01 T02271037  RH  017%=      5-min Rain = 0
KLA1 110948Z 35002KT 23/M04 A2987 RMK A01 T02271037  RH  017%=      5-min Rain = 0
KLA1 110949Z 34003KT 23/M04 A2987 RMK A01 T02261037  RH  017%=      5-min Rain = 0
KLA1 110950Z 32003KT 23/M04 A2987 RMK A01 T02261037  RH  017%=      5-min Rain = 0
KLA1 110951Z 34002KT 23/M04 A2987 RMK A01 T02251037  RH  017%=      5-min Rain = 0
KLA1 110952Z 32003KT 23/M04 A2987 RMK A01 T02251037  RH  017%=      5-min Rain = 0
KLA1 110953Z 31003KT 22/M04 A2987 RMK A01 T02241037  RH  017%=      5-min Rain = 0
KLA1 110954Z 30001KT 22/M04 A2987 RMK A01 T02241036  RH  017%=      5-min Rain = 0
KLA1 110955Z 30004KT 22/M04 A2987 RMK A01 T02231036  RH  017%=      5-min Rain = 0
KLA1 110956Z 31004KT 22/M04 A2987 RMK A01 T02221036  RH  018%=      5-min Rain = 0
KLA1 110957Z 31004KT 22/M04 A2987 RMK A01 T02211036  RH  018%=      5-min Rain = 0
KLA1 110958Z 31003KT 22/M04 A2987 RMK A01 T02211035  RH  018%=      5-min Rain = 0
KLA1 110959Z 31003KT 22/M04 A2987 RMK A01 T02201035  RH  018%=      5-min Rain = 0
KLA1 111000Z 31002KT 22/M04 A2987 RMK A01 T02201035  RH  018%=      5-min Rain = 0
KLA1 111001Z 32003KT 22/M03 A2987 RMK A01 T02201034  RH  018%=      5-min Rain = 0
KLA1 111002Z 31003KT 22/M04 A2987 RMK A01 T02181035  RH  018%=      5-min Rain = 0
KLA1 111003Z 31004KT 22/M04 A2987 RMK A01 T02181035  RH  018%=      5-min Rain = 0
KLA1 111004Z 31003KT 22/M04 A2987 RMK A01 T02181036  RH  018%=      5-min Rain = 0
KLA1 111005Z 31002KT 22/M04 A2987 RMK A01 T02171036  RH  018%=      5-min Rain = 0
KLA1 111006Z 30003KT 22/M04 A2987 RMK A01 T02181036  RH  018%=      5-min Rain = 0
KLA1 111007Z 30003KT 22/M04 A2987 RMK A01 T02181036  RH  018%=      5-min Rain = 0
KLA1 111008Z 30003KT 22/M04 A2987 RMK A01 T02181036  RH  018%=      5-min Rain = 0
KLA1 111009Z 30005KT 22/M04 A2987 RMK A01 T02191036  RH  018%=      5-min Rain = 0
KLA1 111010Z 30004KT 22/M04 A2987 RMK A01 T02191036  RH  018%=      5-min Rain = 0
KLA1 111011Z 30003KT 22/M04 A2987 RMK A01 T02211036  RH  018%=      5-min Rain = 0
KLA1 111012Z 29004KT 22/M04 A2987 RMK A01 T02211036  RH  018%=      5-min Rain = 0
KLA1 111013Z 30003KT 22/M04 A2987 RMK A01 T02211035  RH  018%=      5-min Rain = 0
KLA1 111014Z 28003KT 22/M03 A2987 RMK A01 T02211034  RH  018%=      5-min Rain = 0
KLA1 111015Z 28003KT 22/M03 A2987 RMK A01 T02201033  RH  018%=      5-min Rain = 0
KLA1 111016Z 28003KT 22/M03 A2987 RMK A01 T02191032  RH  018%=      5-min Rain = 0
KLA1 111017Z 29003KT 22/M03 A2987 RMK A01 T02171032  RH  019%=      5-min Rain = 0
KLA1 111018Z 29003KT 22/M03 A2987 RMK A01 T02161032  RH  019%=      5-min Rain = 0
KLA1 111019Z 30003KT 22/M03 A2987 RMK A01 T02151033  RH  019%=      5-min Rain = 0
KLA1 111020Z 31003KT 22/M03 A2987 RMK A01 T02151033  RH  019%=      5-min Rain = 0
KLA1 111021Z 32003KT 22/M03 A2987 RMK A01 T02151034  RH  019%=      5-min Rain = 0
KLA1 111022Z 32003KT 22/M03 A2987 RMK A01 T02151034  RH  019%=      5-min Rain = 0
KLA1 111023Z 32003KT 22/M04 A2987 RMK A01 T02151036  RH  018%=      5-min Rain = 0
KLA1 111024Z 32002KT 22/M04 A2987 RMK A01 T02171036  RH  018%=      5-min Rain = 0
KLA1 111025Z 32002KT 22/M03 A2987 RMK A01 T02181034  RH  018%=      5-min Rain = 0
KLA1 111026Z 31002KT 22/M03 A2987 RMK A01 T02181034  RH  018%=      5-min Rain = 0
KLA1 111027Z 31001KT 22/M03 A2987 RMK A01 T02181034  RH  018%=      5-min Rain = 0
KLA1 111028Z 32001KT 22/M04 A2987 RMK A01 T02181035  RH  018%=      5-min Rain = 0
KLA1 111029Z 31002KT 22/M04 A2987 RMK A01 T02171035  RH  018%=      5-min Rain = 0
KLA1 111030Z 31004KT 22/M04 A2987 RMK A01 T02171035  RH  018%=      5-min Rain = 0
KLA1 111031Z 32003KT 22/M04 A2987 RMK A01 T02171035  RH  018%=      5-min Rain = 0
KLA1 111032Z 32003KT 22/M04 A2987 RMK A01 T02171035  RH  018%=      5-min Rain = 0
KLA1 111033Z 32004KT 22/M04 A2987 RMK A01 T02171035  RH  018%=      5-min Rain = 0
KLA1 111034Z 32004KT 22/M04 A2987 RMK A01 T02171036  RH  018%=      5-min Rain = 0
KLA1 111035Z 32003KT 22/M04 A2987 RMK A01 T02171036  RH  018%=      5-min Rain = 0
KLA1 111036Z 34003KT 22/M04 A2987 RMK A01 T02181035  RH  018%=      5-min Rain = 0
KLA1 111037Z 34002KT 22/M03 A2987 RMK A01 T02181034  RH  018%=      5-min Rain = 0
KLA1 111038Z 33003KT 22/M03 A2987 RMK A01 T02171034  RH  018%=      5-min Rain = 0
KLA1 111039Z 32003KT 22/M04 A2987 RMK A01 T02161035  RH  018%=      5-min Rain = 0
KLA1 111040Z 33003KT 22/M03 A2987 RMK A01 T02161034  RH  018%=      5-min Rain = 0
KLA1 111041Z 34004KT 22/M03 A2987 RMK A01 T02161034  RH  018%=      5-min Rain = 0
KLA1 111042Z 32003KT 22/M03 A2987 RMK A01 T02151034  RH  018%=      5-min Rain = 0
KLA1 111043Z 32004KT 22/M04 A2987 RMK A01 T02151035  RH  018%=      5-min Rain = 0
KLA1 111044Z 33003KT 22/M04 A2987 RMK A01 T02161035  RH  018%=      5-min Rain = 0
KLA1 111045Z 32003KT 22/M04 A2988 RMK A01 T02161035  RH  018%=      5-min Rain = 0
KLA1 111046Z 35002KT 22/M04 A2988 RMK A01 T02161035  RH  018%=      5-min Rain = 0
KLA1 111047Z 35002KT 22/M03 A2988 RMK A01 T02161034  RH  018%=      5-min Rain = 0
KLA1 111048Z 34002KT 22/M03 A2988 RMK A01 T02161033  RH  019%=      5-min Rain = 0
KLA1 111049Z 35003KT 21/M03 A2988 RMK A01 T02141032  RH  019%=      5-min Rain = 0
KLA1 111050Z 33003KT 21/M03 A2988 RMK A01 T02131033  RH  019%=      5-min Rain = 0
KLA1 111051Z 34002KT 21/M03 A2988 RMK A01 T02131034  RH  019%=      5-min Rain = 0
KLA1 111052Z 34003KT 21/M03 A2988 RMK A01 T02121034  RH  019%=      5-min Rain = 0
KLA1 111053Z 33003KT 21/M04 A2988 RMK A01 T02121035  RH  019%=      5-min Rain = 0
KLA1 111054Z 33003KT 21/M04 A2988 RMK A01 T02121035  RH  019%=      5-min Rain = 0
KLA1 111055Z 34002KT 21/M04 A2988 RMK A01 T02131035  RH  019%=      5-min Rain = 0
KLA1 111056Z 33001KT 21/M04 A2988 RMK A01 T02131035  RH  019%=      5-min Rain = 0
KLA1 111057Z 32003KT 21/M04 A2988 RMK A01 T02131035  RH  019%=      5-min Rain = 0
KLA1 111058Z 31003KT 21/M04 A2988 RMK A01 T02141035  RH  019%=      5-min Rain = 0
KLA1 111059Z 32002KT 21/M04 A2988 RMK A01 T02141035  RH  019%=      5-min Rain = 0
KLA1 111100Z 32003KT 21/M04 A2988 RMK A01 T02141035  RH  019%=      5-min Rain = 0
KLA1 111101Z 32005KT 21/M04 A2988 RMK A01 T02141035  RH  019%=      5-min Rain = 0
KLA1 111102Z 31004KT 21/M04 A2988 RMK A01 T02141035  RH  019%=      5-min Rain = 0
KLA1 111103Z 31004KT 21/M04 A2988 RMK A01 T02141035  RH  019%=      5-min Rain = 0
KLA1 111104Z 32005KT 21/M04 A2988 RMK A01 T02141035  RH  019%=      5-min Rain = 0
KLA1 111105Z 32005KT 21/M03 A2988 RMK A01 T02141034  RH  019%=      5-min Rain = 0
KLA1 111106Z 33004KT 21/M03 A2988 RMK A01 T02141034  RH  019%=      5-min Rain = 0
KLA1 111107Z 31003KT 21/M04 A2988 RMK A01 T02141035  RH  019%=      5-min Rain = 0
KLA1 111108Z 32004KT 21/M03 A2989 RMK A01 T02141034  RH  019%=      5-min Rain = 0
KLA1 111109Z 32004KT 21/M03 A2989 RMK A01 T02141034  RH  019%=      5-min Rain = 0
KLA1 111110Z 32004KT 21/M03 A2989 RMK A01 T02141034  RH  019%=      5-min Rain = 0
KLA1 111111Z 32005KT 21/M03 A2989 RMK A01 T02141034  RH  019%=      5-min Rain = 0
KLA1 111112Z 33005KT 21/M03 A2989 RMK A01 T02141033  RH  019%=      5-min Rain = 0
KLA1 111113Z 34005KT 21/M03 A2989 RMK A01 T02131033  RH  019%=      5-min Rain = 0
KLA1 111114Z 35005KT 21/M03 A299 RMK A01 T02131034  RH  019%=      5-min Rain = 0
KLA1 111115Z 35005KT 21/M03 A299 RMK A01 T02141034  RH  019%=      5-min Rain = 0
KLA1 111116Z 36006KT 22/M03 A2991 RMK A01 T02151034  RH  019%=      5-min Rain = 0
KLA1 111117Z 35007KT 22/M03 A2991 RMK A01 T02151033  RH  019%=      5-min Rain = 0
KLA1 111118Z 35011KT 22/M03 A2992 RMK A01 T02151033  RH  019%=      5-min Rain = 0
KLA1 111119Z 35022KT 22/M03 A2992 RMK A01 T02171033  RH  018%=      5-min Rain = 0
KLA1 111120Z 35017G22KT 22/M03 A2992 RMK A01 T02191033  RH  018%=      5-min Rain = 0
KLA1 111121Z 34015G20KT 22/M04 A2992 RMK A01 T02201035  RH  018%=      5-min Rain = 0
KLA1 111122Z 00017KT 22/M04 A2992 RMK A01 T02181036  RH  018%=      5-min Rain = 0
KLA1 111123Z 00016G21KT 22/M04 A2992 RMK A01 T02161037  RH  018%=      5-min Rain = 0
KLA1 111124Z 36012KT 22/M04 A2992 RMK A01 T02151038  RH  018%=      5-min Rain = 0
KLA1 111125Z 01014G20KT 21/M04 A2992 RMK A01 T02131039  RH  018%=      5-min Rain = 0
KLA1 111126Z 36018KT 21/M04 A2993 RMK A01 T02121040  RH  018%=      5-min Rain = 0
KLA1 111127Z 01015G21KT 21/M04 A2993 RMK A01 T02111041  RH  018%=      5-min Rain = 0
KLA1 111128Z 02015KT 21/M04 A2993 RMK A01 T02101040  RH  018%=      5-min Rain = 0
KLA1 111129Z 01015KT 21/M04 A2993 RMK A01 T02081040  RH  019%=      5-min Rain = 0
KLA1 111130Z 01016G21KT 21/M04 A2993 RMK A01 T02071038  RH  019%=      5-min Rain = 0
KLA1 111131Z 01016G22KT 21/M04 A2993 RMK A01 T02051036  RH  019%=      5-min Rain = 0
KLA1 111132Z 01015KT 20/M03 A2993 RMK A01 T02031033  RH  020%=      5-min Rain = 0
KLA1 111133Z 01015KT 20/M03 A2993 RMK A01 T02011031  RH  021%=      5-min Rain = 0
KLA1 111134Z 02017G23KT 20/M03 A2993 RMK A01 T02001029  RH  021%=      5-min Rain = 0
KLA1 111135Z 01016G22KT 20/M03 A2993 RMK A01 T01991026  RH  022%=      5-min Rain = 0
KLA1 111136Z 02016G21KT 20/M02 A2994 RMK A01 T01981024  RH  022%=      5-min Rain = 0
KLA1 111137Z 02013G18KT 20/M02 A2994 RMK A01 T01971024  RH  022%=      5-min Rain = 0
KLA1 111138Z 01012KT 20/M02 A2994 RMK A01 T01961023  RH  023%=      5-min Rain = 0
KLA1 111139Z 36015G20KT 20/M02 A2994 RMK A01 T01951020  RH  023%=      5-min Rain = 0
KLA1 111140Z 01013G18KT 19/M02 A2994 RMK A01 T01931015  RH  024%=      5-min Rain = 0
KLA1 111141Z 01013KT 19/M01 A2994 RMK A01 T01931009  RH  026%=      5-min Rain = 0
KLA1 111142Z 01014G22KT 19/M01 A2994 RMK A01 T01911006  RH  026%=      5-min Rain = 0
KLA1 111143Z 01014KT 19/M00 A2994 RMK A01 T01901001  RH  028%=      5-min Rain = 0
KLA1 111144Z 01013KT 19/00 A2995 RMK A01 T01890004  RH  029%=      5-min Rain = 0
KLA1 111145Z 02016KT 19/01 A2995 RMK A01 T01880008  RH  030%=      5-min Rain = 0
KLA1 111146Z 01014KT 19/01 A2995 RMK A01 T01870011  RH  031%=      5-min Rain = 0
KLA1 111147Z 02013KT 19/01 A2995 RMK A01 T01870014  RH  032%=      5-min Rain = 0
KLA1 111148Z 01014G19KT 19/02 A2995 RMK A01 T01860017  RH  032%=      5-min Rain = 0
KLA1 111149Z 01013KT 19/02 A2995 RMK A01 T01850021  RH  033%=      5-min Rain = 0
KLA1 111150Z 00014G19KT 19/03 A2995 RMK A01 T01850026  RH  035%=      5-min Rain = 0
KLA1 111151Z 02013KT 18/03 A2995 RMK A01 T01840033  RH  037%=      5-min Rain = 0
KLA1 111152Z 01014KT 18/03 A2995 RMK A01 T01830034  RH  037%=      5-min Rain = 0
KLA1 111153Z 01018KT 18/04 A2995 RMK A01 T01820040  RH  039%=      5-min Rain = 0
KLA1 111154Z 02019G25KT 18/05 A2995 RMK A01 T01820046  RH  041%=      5-min Rain = 0
KLA1 111155Z 01019KT 18/05 A2995 RMK A01 T01810051  RH  042%=      5-min Rain = 0
KLA1 111156Z 02016G22KT 18/05 A2995 RMK A01 T01800054  RH  043%=      5-min Rain = 0
KLA1 111157Z 02018G23KT 18/06 A2995 RMK A01 T01800056  RH  044%=      5-min Rain = 0
KLA1 111158Z 01017KT 18/06 A2996 RMK A01 T01790057  RH  044%=      5-min Rain = 0
KLA1 111159Z 01017G23KT 18/06 A2996 RMK A01 T01790058  RH  045%=      5-min Rain = 0
KLA1 111200Z 01017KT 18/06 A2996 RMK A01 T01780061  RH  046%=      5-min Rain = 0
KLA1 111201Z 00012G19KT 18/06 A2996 RMK A01 T01780062  RH  047%=      5-min Rain = 0
KLA1 111202Z 00013KT 18/06 A2996 RMK A01 T01770062  RH  047%=      5-min Rain = 0
KLA1 111203Z 01015G20KT 18/06 A2996 RMK A01 T01770063  RH  047%=      5-min Rain = 0
KLA1 111204Z 01017G23KT 18/07 A2996 RMK A01 T01770067  RH  048%=      5-min Rain = 0
KLA1 111205Z 02017KT 18/07 A2996 RMK A01 T01760069  RH  050%=      5-min Rain = 0
KLA1 111206Z 02019G25KT 18/07 A2996 RMK A01 T01750070  RH  050%=      5-min Rain = 0
KLA1 111207Z 02017G22KT 18/07 A2997 RMK A01 T01750071  RH  051%=      5-min Rain = 0
KLA1 111208Z 02021G29KT 18/07 A2997 RMK A01 T01750073  RH  051%=      5-min Rain = 0
KLA1 111209Z 02018KT 17/07 A2997 RMK A01 T01740073  RH  051%=      5-min Rain = 0
KLA1 111210Z 02018KT 17/07 A2997 RMK A01 T01740074  RH  052%=      5-min Rain = 0
KLA1 111211Z 01015KT 17/07 A2997 RMK A01 T01740074  RH  052%=      5-min Rain = 0
KLA1 111212Z 01015KT 17/07 A2997 RMK A01 T01730074  RH  052%=      5-min Rain = 0
KLA1 111213Z 01013G22KT 17/08 A2997 RMK A01 T01730075  RH  052%=      5-min Rain = 0
KLA1 111214Z 02017G24KT 17/08 A2997 RMK A01 T01730076  RH  053%=      5-min Rain = 0
KLA1 111215Z 02019G24KT 17/08 A2997 RMK A01 T01720078  RH  054%=      5-min Rain = 0
KLA1 111216Z 01016KT 17/08 A2997 RMK A01 T01720079  RH  054%=      5-min Rain = 0
KLA1 111217Z 01015KT 17/08 A2997 RMK A01 T01710079  RH  055%=      5-min Rain = 0
KLA1 111218Z 01016G24KT 17/08 A2997 RMK A01 T01710080  RH  055%=      5-min Rain = 0
KLA1 111219Z 02020KT 17/08 A2998 RMK A01 T01700082  RH  056%=      5-min Rain = 0
KLA1 111220Z 01019G28KT 17/08 A2998 RMK A01 T01700083  RH  057%=      5-min Rain = 0
KLA1 111221Z 02016G21KT 17/08 A2998 RMK A01 T01690084  RH  057%=      5-min Rain = 0
KLA1 111222Z 01012KT 17/08 A2998 RMK A01 T01700084  RH  057%=      5-min Rain = 0
KLA1 111223Z 00016G21KT 17/08 A2998 RMK A01 T01690084  RH  057%=      5-min Rain = 0
KLA1 111224Z 01022G28KT 17/09 A2998 RMK A01 T01690086  RH  058%=      5-min Rain = 0
KLA1 111225Z 01020G26KT 17/09 A2998 RMK A01 T01680087  RH  058%=      5-min Rain = 0
KLA1 111226Z 02018G23KT 17/09 A2998 RMK A01 T01680087  RH  059%=      5-min Rain = 0
KLA1 111227Z 01020G25KT 17/09 A2998 RMK A01 T01680087  RH  059%=      5-min Rain = 0
KLA1 111228Z 01016G22KT 17/09 A2999 RMK A01 T01680087  RH  059%=      5-min Rain = 0
KLA1 111229Z 01015KT 17/09 A2999 RMK A01 T01680087  RH  059%=      5-min Rain = 0
KLA1 111230Z 01019G24KT 17/09 A2999 RMK A01 T01670087  RH  059%=      5-min Rain = 0
KLA1 111231Z 01018KT 17/09 A2999 RMK A01 T01670088  RH  059%=      5-min Rain = 0
KLA1 111232Z 01017G22KT 17/09 A2999 RMK A01 T01670087  RH  059%=      5-min Rain = 0
KLA1 111233Z 00018G27KT 17/09 A2999 RMK A01 T01670087  RH  059%=      5-min Rain = 0
KLA1 111234Z 01018G26KT 17/09 A2999 RMK A01 T01670087  RH  059%=      5-min Rain = 0
KLA1 111235Z 01018KT 17/09 A2999 RMK A01 T01660087  RH  060%=      5-min Rain = 0
KLA1 111236Z 01022G27KT 17/09 A30 RMK A01 T01660088  RH  060%=      5-min Rain = 0
KLA1 111237Z 01022KT 17/09 A30 RMK A01 T01650090  RH  061%=      5-min Rain = 0
KLA1 111238Z 01020G26KT 17/09 A30 RMK A01 T01650090  RH  061%=      5-min Rain = 0
KLA1 111239Z 01019G24KT 16/09 A30 RMK A01 T01640090  RH  062%=      5-min Rain = 0
KLA1 111240Z 01019KT 16/09 A30 RMK A01 T01640091  RH  062%=      5-min Rain = 0
KLA1 111241Z 01016G22KT 16/09 A30 RMK A01 T01640092  RH  062%=      5-min Rain = 0
KLA1 111242Z 02015KT 16/09 A30 RMK A01 T01630091  RH  062%=      5-min Rain = 0
KLA1 111243Z 01021G28KT 16/09 A30 RMK A01 T01630092  RH  063%=      5-min Rain = 0
KLA1 111244Z 02019G25KT 16/09 A30 RMK A01 T01630092  RH  063%=      5-min Rain = 0
KLA1 111245Z 02014G21KT 16/09 A30 RMK A01 T01630092  RH  063%=      5-min Rain = 0
KLA1 111246Z 01017G25KT 16/09 A30 RMK A01 T01630092  RH  063%=      5-min Rain = 0
KLA1 111247Z 01019KT 16/09 A30 RMK A01 T01620092  RH  063%=      5-min Rain = 0
KLA1 111248Z 01020G27KT 16/09 A30 RMK A01 T01620093  RH  063%=      5-min Rain = 0
KLA1 111249Z 02022G29KT 16/09 A30 RMK A01 T01620093  RH  064%=      5-min Rain = 0
KLA1 111250Z 02020KT 16/09 A30 RMK A01 T01620093  RH  064%=      5-min Rain = 0
KLA1 111251Z 01015KT 16/09 A30 RMK A01 T01620093  RH  064%=      5-min Rain = 0
KLA1 111252Z 01018KT 16/09 A30 RMK A01 T01620093  RH  064%=      5-min Rain = 0
KLA1 111253Z 01020KT 16/09 A30 RMK A01 T01620093  RH  064%=      5-min Rain = 0
KLA1 111254Z 02021G26KT 16/09 A3001 RMK A01 T01620094  RH  064%=      5-min Rain = 0
KLA1 111255Z 01019G24KT 16/09 A3001 RMK A01 T01620094  RH  064%=      5-min Rain = 0
KLA1 111256Z 01021G28KT 16/09 A3001 RMK A01 T01620094  RH  064%=      5-min Rain = 0
KLA1 111257Z 02020G26KT 16/09 A3001 RMK A01 T01610094  RH  064%=      5-min Rain = 0
KLA1 111258Z 01021G27KT 16/09 A3001 RMK A01 T01610094  RH  064%=      5-min Rain = 0
KLA1 111259Z 01016G23KT 16/09 A3001 RMK A01 T01620094  RH  064%=      5-min Rain = 0
KLA1 111300Z 01014G23KT 16/09 A3001 RMK A01 T01610094  RH  064%=      5-min Rain = 0
KLA1 111301Z 02020G25KT 16/09 A3001 RMK A01 T01610094  RH  064%=      5-min Rain = 0
KLA1 111302Z 01020G25KT 16/09 A3001 RMK A01 T01610094  RH  064%=      5-min Rain = 0
KLA1 111303Z 02018G23KT 16/09 A3001 RMK A01 T01610094  RH  064%=      5-min Rain = 0
KLA1 111304Z 01016G23KT 16/09 A3001 RMK A01 T01610094  RH  064%=      5-min Rain = 0
KLA1 111305Z 02020G25KT 16/09 A3002 RMK A01 T01610094  RH  064%=      5-min Rain = 0
KLA1 111306Z 01021G27KT 16/09 A3002 RMK A01 T01610094  RH  064%=      5-min Rain = 0
KLA1 111307Z 01018G24KT 16/09 A3002 RMK A01 T01610094  RH  064%=      5-min Rain = 0
KLA1 111308Z 01018G26KT 16/09 A3002 RMK A01 T01610094  RH  064%=      5-min Rain = 0
KLA1 111309Z 02017G22KT 16/09 A3002 RMK A01 T01610094  RH  064%=      5-min Rain = 0
KLA1 111310Z 02020G28KT 16/09 A3002 RMK A01 T01610094  RH  064%=      5-min Rain = 0
KLA1 111311Z 02019KT 16/09 A3002 RMK A01 T01610094  RH  064%=      5-min Rain = 0
KLA1 111312Z 02015G23KT 16/09 A3002 RMK A01 T01610094  RH  064%=      5-min Rain = 0
KLA1 111313Z 02016G25KT 16/09 A3003 RMK A01 T01610094  RH  064%=      5-min Rain = 0
KLA1 111314Z 01014G20KT 16/09 A3003 RMK A01 T01610094  RH  064%=      5-min Rain = 0
KLA1 111315Z 02016KT 16/09 A3003 RMK A01 T01610094  RH  064%=      5-min Rain = 0
KLA1 111316Z 01020G25KT 16/09 A3003 RMK A01 T01600093  RH  064%=      5-min Rain = 0
KLA1 111317Z 01016G21KT 16/09 A3003 RMK A01 T01600093  RH  064%=      5-min Rain = 0
KLA1 111318Z 01018G23KT 16/09 A3003 RMK A01 T01610093  RH  064%=      5-min Rain = 0
KLA1 111319Z 01016KT 16/09 A3003 RMK A01 T01610093  RH  064%=      5-min Rain = 0
KLA1 111320Z 01022G27KT 16/09 A3003 RMK A01 T01600092  RH  064%=      5-min Rain = 0
KLA1 111321Z 01020KT 16/09 A3003 RMK A01 T01600092  RH  064%=      5-min Rain = 0
KLA1 111322Z 01017G24KT 16/09 A3003 RMK A01 T01610092  RH  064%=      5-min Rain = 0
KLA1 111323Z 01015G20KT 16/09 A3003 RMK A01 T01600091  RH  064%=      5-min Rain = 0
KLA1 111324Z 01019G25KT 16/09 A3003 RMK A01 T01600091  RH  064%=      5-min Rain = 0
KLA1 111325Z 02017G22KT 16/09 A3003 RMK A01 T01600091  RH  063%=      5-min Rain = 0
KLA1 111326Z 01014G19KT 16/09 A3003 RMK A01 T01600091  RH  063%=      5-min Rain = 0
KLA1 111327Z 01015G26KT 16/09 A3003 RMK A01 T01600090  RH  063%=      5-min Rain = 0
KLA1 111328Z 01020G26KT 16/09 A3004 RMK A01 T01600089  RH  063%=      5-min Rain = 0
KLA1 111329Z 01019G25KT 16/09 A3004 RMK A01 T01600088  RH  062%=      5-min Rain = 0
KLA1 111330Z 01016G21KT 16/09 A3004 RMK A01 T01600088  RH  062%=      5-min Rain = 0
KLA1 111331Z 02019G24KT 16/09 A3004 RMK A01 T01600087  RH  062%=      5-min Rain = 0
KLA1 111332Z 02018G23KT 16/09 A3004 RMK A01 T01590085  RH  061%=      5-min Rain = 0
KLA1 111333Z 01018G24KT 16/08 A3004 RMK A01 T01590084  RH  061%=      5-min Rain = 0
KLA1 111334Z 01018KT 16/08 A3004 RMK A01 T01590082  RH  060%=      5-min Rain = 0
KLA1 111335Z 02017G23KT 16/08 A3004 RMK A01 T01580081  RH  060%=      5-min Rain = 0
KLA1 111336Z 01014G20KT 16/08 A3004 RMK A01 T01580080  RH  060%=      5-min Rain = 0
KLA1 111337Z 01014G22KT 16/08 A3004 RMK A01 T01580078  RH  059%=      5-min Rain = 0
KLA1 111338Z 01013G18KT 16/08 A3005 RMK A01 T01570075  RH  058%=      5-min Rain = 0
KLA1 111339Z 01009KT 16/07 A3005 RMK A01 T01570071  RH  056%=      5-min Rain = 0
KLA1 111340Z 00011KT 16/07 A3005 RMK A01 T01560066  RH  055%=      5-min Rain = 0
KLA1 111341Z 00012G20KT 16/06 A3005 RMK A01 T01550063  RH  054%=      5-min Rain = 0
KLA1 111342Z 02017KT 16/06 A3005 RMK A01 T01550059  RH  053%=      5-min Rain = 0
KLA1 111343Z 01016G22KT 15/06 A3005 RMK A01 T01540056  RH  052%=      5-min Rain = 0
KLA1 111344Z 01014KT 15/06 A3005 RMK A01 T01530055  RH  052%=      5-min Rain = 0
KLA1 111345Z 36014KT 15/05 A3005 RMK A01 T01530053  RH  051%=      5-min Rain = 0
KLA1 111346Z 01015G21KT 15/05 A3005 RMK A01 T01520052  RH  051%=      5-min Rain = 0
KLA1 111347Z 02011G18KT 15/05 A3006 RMK A01 T01520051  RH  051%=      5-min Rain = 0
KLA1 111348Z 02016G21KT 15/05 A3006 RMK A01 T01520050  RH  050%=      5-min Rain = 0
KLA1 111349Z 02017G23KT 15/05 A3006 RMK A01 T01520048  RH  050%=      5-min Rain = 0
KLA1 111350Z 01018G25KT 15/05 A3006 RMK A01 T01510047  RH  050%=      5-min Rain = 0
KLA1 111351Z 02015G22KT 15/05 A3006 RMK A01 T01510046  RH  049%=      5-min Rain = 0
KLA1 111352Z 02011G16KT 15/05 A3006 RMK A01 T01510045  RH  049%=      5-min Rain = 0
KLA1 111353Z 01014G19KT 15/04 A3006 RMK A01 T01510044  RH  049%=      5-min Rain = 0
KLA1 111354Z 35012G18KT 15/04 A3007 RMK A01 T01510042  RH  048%=      5-min Rain = 0
KLA1 111355Z 00015KT 15/04 A3007 RMK A01 T01510040  RH  047%=      5-min Rain = 0
KLA1 111356Z 01009KT 15/04 A3007 RMK A01 T01500038  RH  047%=      5-min Rain = 0
KLA1 111357Z 00008G13KT 15/04 A3007 RMK A01 T01500038  RH  047%=      5-min Rain = 0
KLA1 111358Z 00009G14KT 15/04 A3007 RMK A01 T01500038  RH  047%=      5-min Rain = 0
KLA1 111359Z 01011KT 15/04 A3007 RMK A01 T01500037  RH  047%=      5-min Rain = 0
KLA1 111400Z 01012KT 15/04 A3007 RMK A01 T01500036  RH  046%=      5-min Rain = 0
KLA1 111401Z 01013G23KT 15/03 A3007 RMK A01 T01500034  RH  046%=      5-min Rain = 0
KLA1 111402Z 01015KT 15/03 A3008 RMK A01 T01500033  RH  045%=      5-min Rain = 0
KLA1 111403Z 01015KT 15/03 A3008 RMK A01 T01490032  RH  045%=      5-min Rain = 0
KLA1 111404Z 01011G16KT 15/03 A3008 RMK A01 T01490031  RH  045%=      5-min Rain = 0
KLA1 111405Z 00010KT 15/03 A3008 RMK A01 T01490031  RH  045%=      5-min Rain = 0
KLA1 111406Z 00013G19KT 15/03 A3009 RMK A01 T01490030  RH  045%=      5-min Rain = 0
KLA1 111407Z 35012KT 15/03 A3009 RMK A01 T01490028  RH  044%=      5-min Rain = 0
KLA1 111408Z 01011KT 15/03 A3009 RMK A01 T01490027  RH  044%=      5-min Rain = 0
KLA1 111409Z 01012G19KT 15/03 A3009 RMK A01 T01490026  RH  044%=      5-min Rain = 0
KLA1 111410Z 00010KT 15/03 A3009 RMK A01 T01490026  RH  044%=      5-min Rain = 0
KLA1 111411Z 03010KT 15/03 A301 RMK A01 T01480025  RH  043%=      5-min Rain = 0
KLA1 111412Z 03013G21KT 15/03 A301 RMK A01 T01480025  RH  043%=      5-min Rain = 0
KLA1 111413Z 02011KT 15/02 A301 RMK A01 T01480024  RH  043%=      5-min Rain = 0
KLA1 111414Z 35008KT 15/02 A301 RMK A01 T01480024  RH  043%=      5-min Rain = 0
KLA1 111415Z 01008G14KT 15/02 A301 RMK A01 T01480024  RH  043%=      5-min Rain = 0
KLA1 111416Z 00011G17KT 15/02 A301 RMK A01 T01480023  RH  043%=      5-min Rain = 0
KLA1 111417Z 01005KT 15/02 A301 RMK A01 T01480023  RH  043%=      5-min Rain = 0
KLA1 111418Z 03007KT 15/02 A3011 RMK A01 T01470022  RH  043%=      5-min Rain = 0
KLA1 111419Z 35007KT 15/02 A3011 RMK A01 T01480022  RH  043%=      5-min Rain = 0
KLA1 111420Z 00009KT 15/02 A3011 RMK A01 T01480022  RH  043%=      5-min Rain = 0
KLA1 111421Z 01007KT 15/02 A3011 RMK A01 T01480022  RH  043%=      5-min Rain = 0
KLA1 111422Z 01006KT 15/02 A3011 RMK A01 T01480022  RH  043%=      5-min Rain = 0
KLA1 111423Z 02004KT 15/02 A3011 RMK A01 T01470021  RH  043%=      5-min Rain = 0
KLA1 111424Z 36004KT 15/02 A3011 RMK A01 T01470022  RH  043%=      5-min Rain = 0
KLA1 111425Z 02006KT 15/02 A3011 RMK A01 T01470022  RH  043%=      5-min Rain = 0
KLA1 111426Z 02007KT 15/02 A3011 RMK A01 T01470022  RH  043%=      5-min Rain = 0
KLA1 111427Z 34008KT 15/02 A3012 RMK A01 T01470022  RH  043%=      5-min Rain = 0
KLA1 111428Z 34003KT 15/02 A3012 RMK A01 T01470022  RH  043%=      5-min Rain = 0
KLA1 111429Z 35004KT 15/02 A3012 RMK A01 T01470022  RH  043%=      5-min Rain = 0
KLA1 111430Z 35003KT 15/02 A3012 RMK A01 T01470022  RH  043%=      5-min Rain = 0
KLA1 111431Z 32005KT 15/02 A3012 RMK A01 T01470022  RH  043%=      5-min Rain = 0
KLA1 111432Z 01003KT 15/02 A3012 RMK A01 T01470022  RH  043%=      5-min Rain = 0
KLA1 111433Z 31001KT 15/02 A3012 RMK A01 T01470022  RH  043%=      5-min Rain = 0
KLA1 111434Z 02007KT 15/02 A3013 RMK A01 T01470021  RH  043%=      5-min Rain = 0
KLA1 111435Z 36011KT 15/02 A3013 RMK A01 T01470022  RH  043%=      5-min Rain = 0
KLA1 111436Z 01012G17KT 15/02 A3013 RMK A01 T01470023  RH  043%=      5-min Rain = 0
KLA1 111437Z 01007KT 15/02 A3013 RMK A01 T01460022  RH  043%=      5-min Rain = 0
KLA1 111438Z 01004KT 15/02 A3013 RMK A01 T01460023  RH  043%=      5-min Rain = 0
KLA1 111439Z 35003KT 15/02 A3013 RMK A01 T01460022  RH  043%=      5-min Rain = 0
KLA1 111440Z 01004KT 15/02 A3013 RMK A01 T01470023  RH  043%=      5-min Rain = 0
KLA1 111441Z 04003KT 15/02 A3013 RMK A01 T01460023  RH  043%=      5-min Rain = 0
KLA1 111442Z 36003KT 15/02 A3014 RMK A01 T01460023  RH  043%=      5-min Rain = 0
KLA1 111443Z 34006KT 15/02 A3014 RMK A01 T01470023  RH  043%=      5-min Rain = 0
KLA1 111444Z 35009KT 15/02 A3014 RMK A01 T01470023  RH  043%=      5-min Rain = 0
KLA1 111445Z 35004KT 15/02 A3014 RMK A01 T01460022  RH  043%=      5-min Rain = 0
KLA1 111446Z 01005KT 15/02 A3014 RMK A01 T01460022  RH  043%=      5-min Rain = 0
KLA1 111447Z 01005KT 15/02 A3014 RMK A01 T01460023  RH  043%=      5-min Rain = 0
KLA1 111448Z 35005KT 15/02 A3014 RMK A01 T01460022  RH  043%=      5-min Rain = 0
KLA1 111449Z 01006KT 15/02 A3014 RMK A01 T01460022  RH  043%=      5-min Rain = 0
KLA1 111450Z 01007KT 15/02 A3014 RMK A01 T01460023  RH  043%=      5-min Rain = 0
KLA1 111451Z 03005KT 15/02 A3014 RMK A01 T01460022  RH  043%=      5-min Rain = 0
KLA1 111452Z 02009KT 15/02 A3014 RMK A01 T01460022  RH  043%=      5-min Rain = 0
KLA1 111453Z 01011KT 15/02 A3014 RMK A01 T01460022  RH  043%=      5-min Rain = 0
KLA1 111454Z 02010KT 15/02 A3014 RMK A01 T01460021  RH  043%=      5-min Rain = 0
KLA1 111455Z 04006KT 15/02 A3014 RMK A01 T01460022  RH  043%=      5-min Rain = 0
KLA1 111456Z 04006KT 15/02 A3014 RMK A01 T01460022  RH  043%=      5-min Rain = 0
KLA1 111457Z 02011KT 15/02 A3014 RMK A01 T01460022  RH  043%=      5-min Rain = 0
KLA1 111458Z 03009KT 15/02 A3015 RMK A01 T01460021  RH  043%=      5-min Rain = 0
KLA1 111459Z 02009G14KT 15/02 A3015 RMK A01 T01460021  RH  043%=      5-min Rain = 0
KLA1 111500Z 01008KT 15/02 A3015 RMK A01 T01460021  RH  043%=      5-min Rain = 0
KLA1 111501Z 02007KT 15/02 A3015 RMK A01 T01460020  RH  043%=      5-min Rain = 0
KLA1 111502Z 03007KT 15/02 A3015 RMK A01 T01460020  RH  043%=      5-min Rain = 0
KLA1 111503Z 03006KT 15/02 A3015 RMK A01 T01460021  RH  043%=      5-min Rain = 0
KLA1 111504Z 36007KT 15/02 A3015 RMK A01 T01460021  RH  043%=      5-min Rain = 0
KLA1 111505Z 02005KT 15/02 A3015 RMK A01 T01460021  RH  043%=      5-min Rain = 0
KLA1 111506Z 02010G15KT 15/02 A3015 RMK A01 T01470021  RH  042%=      5-min Rain = 0
KLA1 111507Z 02012KT 15/02 A3015 RMK A01 T01460020  RH  042%=      5-min Rain = 0
KLA1 111508Z 02010KT 15/02 A3015 RMK A01 T01460020  RH  042%=      5-min Rain = 0
KLA1 111509Z 03005KT 15/02 A3015 RMK A01 T01460020  RH  043%=      5-min Rain = 0
KLA1 111510Z 04006KT 15/02 A3015 RMK A01 T01470021  RH  042%=      5-min Rain = 0
KLA1 111511Z 02010KT 15/02 A3015 RMK A01 T01470021  RH  042%=      5-min Rain = 0
KLA1 111512Z 02009G14KT 15/02 A3015 RMK A01 T01470019  RH  042%=      5-min Rain = 0
KLA1 111513Z 01013KT 15/02 A3015 RMK A01 T01470019  RH  042%=      5-min Rain = 0
KLA1 111514Z 01011KT 15/02 A3015 RMK A01 T01470018  RH  042%=      5-min Rain = 0
KLA1 111515Z 02010KT 15/02 A3015 RMK A01 T01470018  RH  042%=      5-min Rain = 0
KLA1 111516Z 03008KT 15/02 A3015 RMK A01 T01470018  RH  042%=      5-min Rain = 0
KLA1 111517Z 01009G15KT 15/02 A3016 RMK A01 T01470018  RH  042%=      5-min Rain = 0
KLA1 111518Z 01010KT 15/02 A3016 RMK A01 T01470017  RH  041%=      5-min Rain = 0
KLA1 111519Z 02010KT 15/02 A3016 RMK A01 T01470017  RH  041%=      5-min Rain = 0
KLA1 111520Z 02008KT 15/02 A3016 RMK A01 T01470016  RH  041%=      5-min Rain = 0
KLA1 111521Z 05009KT 15/02 A3016 RMK A01 T01480015  RH  041%=      5-min Rain = 0
KLA1 111522Z 05007G12KT 15/02 A3016 RMK A01 T01480016  RH  041%=      5-min Rain = 0
KLA1 111523Z 04011KT 15/02 A3016 RMK A01 T01480015  RH  040%=      5-min Rain = 0
KLA1 111524Z 03013KT 15/01 A3016 RMK A01 T01480013  RH  040%=      5-min Rain = 0
KLA1 111525Z 03012G17KT 15/01 A3016 RMK A01 T01480011  RH  039%=      5-min Rain = 0
KLA1 111526Z 04014KT 15/01 A3017 RMK A01 T01480010  RH  039%=      5-min Rain = 0
KLA1 111527Z 03011KT 15/01 A3016 RMK A01 T01480010  RH  039%=      5-min Rain = 0
KLA1 111528Z 04012G17KT 15/01 A3017 RMK A01 T01470009  RH  039%=      5-min Rain = 0
KLA1 111529Z 05011KT 15/01 A3017 RMK A01 T01480009  RH  039%=      5-min Rain = 0
KLA1 111530Z 04010KT 15/01 A3017 RMK A01 T01480009  RH  039%=      5-min Rain = 0
KLA1 111531Z 03011G20KT 15/01 A3017 RMK A01 T01480009  RH  039%=      5-min Rain = 0
KLA1 111532Z 02016KT 15/01 A3016 RMK A01 T01490007  RH  038%=      5-min Rain = 0
KLA1 111533Z 04015KT 15/01 A3017 RMK A01 T01480006  RH  038%=      5-min Rain = 0
KLA1 111534Z 04009KT 15/01 A3017 RMK A01 T01480007  RH  038%=      5-min Rain = 0
KLA1 111535Z 03014KT 15/01 A3017 RMK A01 T01480006  RH  038%=      5-min Rain = 0
KLA1 111536Z 04013G19KT 15/01 A3017 RMK A01 T01490006  RH  038%=      5-min Rain = 0
KLA1 111537Z 04012KT 15/01 A3017 RMK A01 T01480005  RH  038%=      5-min Rain = 0
KLA1 111538Z 02011KT 15/01 A3017 RMK A01 T01490006  RH  038%=      5-min Rain = 0
KLA1 111539Z 05010KT 15/01 A3016 RMK A01 T01490005  RH  037%=      5-min Rain = 0
KLA1 111540Z 04013KT 15/01 A3016 RMK A01 T01490005  RH  037%=      5-min Rain = 0
KLA1 111541Z 05014KT 15/01 A3017 RMK A01 T01500005  RH  037%=      5-min Rain = 0
KLA1 111542Z 03013KT 15/00 A3017 RMK A01 T01500004  RH  037%=      5-min Rain = 0
KLA1 111543Z 03010KT 15/00 A3017 RMK A01 T01500003  RH  037%=      5-min Rain = 0
KLA1 111544Z 04011G17KT 15/00 A3017 RMK A01 T01500003  RH  037%=      5-min Rain = 0
KLA1 111545Z 02012KT 15/00 A3017 RMK A01 T01500003  RH  037%=      5-min Rain = 0
KLA1 111546Z 03012KT 15/00 A3017 RMK A01 T01510002  RH  036%=      5-min Rain = 0
KLA1 111547Z 04014KT 15/00 A3017 RMK A01 T01500002  RH  036%=      5-min Rain = 0
KLA1 111548Z 03012G22KT 15/00 A3017 RMK A01 T01500002  RH  036%=      5-min Rain = 0
KLA1 111549Z 04017KT 15/00 A3017 RMK A01 T01510002  RH  036%=      5-min Rain = 0
KLA1 111550Z 02011G16KT 15/00 A3017 RMK A01 T01510001  RH  036%=      5-min Rain = 0
KLA1 111551Z 02013G18KT 15/00 A3017 RMK A01 T01510001  RH  036%=      5-min Rain = 0
KLA1 111552Z 03011KT 15/00 A3017 RMK A01 T01510000  RH  036%=      5-min Rain = 0
KLA1 111553Z 04011KT 15/00 A3017 RMK A01 T01510001  RH  036%=      5-min Rain = 0
KLA1 111554Z 03010G17KT 15/00 A3017 RMK A01 T01520001  RH  036%=      5-min Rain = 0
KLA1 111555Z 04011G16KT 15/00 A3017 RMK A01 T01520001  RH  036%=      5-min Rain = 0
KLA1 111556Z 03011G16KT 15/00 A3017 RMK A01 T01520001  RH  036%=      5-min Rain = 0
KLA1 111557Z 04012KT 15/00 A3017 RMK A01 T01520000  RH  035%=      5-min Rain = 0
KLA1 111558Z 05010KT 15/00 A3017 RMK A01 T01520001  RH  036%=      5-min Rain = 0
KLA1 111559Z 04011G17KT 15/00 A3017 RMK A01 T01530001  RH  036%=      5-min Rain = 0
KLA1 111600Z 05012KT 15/00 A3017 RMK A01 T01530001  RH  035%=      5-min Rain = 0
KLA1 111601Z 04013KT 15/00 A3017 RMK A01 T01530001  RH  035%=      5-min Rain = 0
KLA1 111602Z 03010G15KT 15/00 A3017 RMK A01 T01530000  RH  035%=      5-min Rain = 0
KLA1 111603Z 02010KT 15/00 A3017 RMK A01 T01530000  RH  035%=      5-min Rain = 0
KLA1 111604Z 04008G13KT 15/00 A3018 RMK A01 T01530000  RH  035%=      5-min Rain = 0
KLA1 111605Z 04006G11KT 15/00 A3018 RMK A01 T01540001  RH  035%=      5-min Rain = 0
KLA1 111606Z 03010KT 16/00 A3018 RMK A01 T01550000  RH  035%=      5-min Rain = 0
KLA1 111607Z 04013G18KT 16/M00 A3018 RMK A01 T01551001  RH  035%=      5-min Rain = 0
KLA1 111608Z 03013G19KT 16/M00 A3018 RMK A01 T01551001  RH  035%=      5-min Rain = 0
KLA1 111609Z 04011KT 16/M00 A3018 RMK A01 T01551001  RH  034%=      5-min Rain = 0
KLA1 111610Z 04012G18KT 16/M00 A3018 RMK A01 T01551001  RH  035%=      5-min Rain = 0
KLA1 111611Z 04013KT 16/M00 A3018 RMK A01 T01551001  RH  034%=      5-min Rain = 0
KLA1 111612Z 05008G16KT 16/00 A3018 RMK A01 T015600-0  RH  034%=      5-min Rain = 0
KLA1 111613Z 03008KT 16/00 A3018 RMK A01 T015600-0  RH  035%=      5-min Rain = 0
KLA1 111614Z 04006KT 16/00 A3018 RMK A01 T01560000  RH  034%=      5-min Rain = 0
KLA1 111615Z 04007G14KT 16/00 A3018 RMK A01 T01570000  RH  034%=      5-min Rain = 0
KLA1 111616Z 05014G19KT 16/M00 A3018 RMK A01 T01571001  RH  034%=      5-min Rain = 0
KLA1 111617Z 03015KT 16/M00 A3018 RMK A01 T01571002  RH  034%=      5-min Rain = 0
KLA1 111618Z 03011G16KT 16/M00 A3018 RMK A01 T01561002  RH  034%=      5-min Rain = 0
KLA1 111619Z 01005G10KT 16/M00 A3019 RMK A01 T01561001  RH  034%=      5-min Rain = 0
KLA1 111620Z 02006KT 16/M00 A3019 RMK A01 T01571001  RH  034%=      5-min Rain = 0
KLA1 111621Z 00011KT 16/M00 A3019 RMK A01 T01581002  RH  034%=      5-min Rain = 0
KLA1 111622Z 02013KT 16/M00 A3019 RMK A01 T01581002  RH  034%=      5-min Rain = 0
KLA1 111623Z 01009G15KT 16/M00 A3019 RMK A01 T01581002  RH  034%=      5-min Rain = 0
KLA1 111624Z 01010KT 16/M00 A3019 RMK A01 T01581002  RH  034%=      5-min Rain = 0
KLA1 111625Z 01010KT 16/M00 A3019 RMK A01 T01581002  RH  033%=      5-min Rain = 0
KLA1 111626Z 02010KT 16/M00 A3019 RMK A01 T01581002  RH  033%=      5-min Rain = 0
KLA1 111627Z 01012G17KT 16/M00 A3019 RMK A01 T01581002  RH  033%=      5-min Rain = 0
KLA1 111628Z 01010KT 16/M00 A3019 RMK A01 T01581002  RH  033%=      5-min Rain = 0
KLA1 111629Z 02012KT 16/M00 A302 RMK A01 T01581002  RH  034%=      5-min Rain = 0
KLA1 111630Z 02008KT 16/M00 A302 RMK A01 T01581002  RH  033%=      5-min Rain = 0
KLA1 111631Z 01010KT 16/M00 A302 RMK A01 T01591002  RH  033%=      5-min Rain = 0
KLA1 111632Z 36006KT 16/M00 A302 RMK A01 T01591002  RH  033%=      5-min Rain = 0
KLA1 111633Z 02008KT 16/M00 A302 RMK A01 T01591001  RH  033%=      5-min Rain = 0
KLA1 111634Z 02007KT 16/M00 A302 RMK A01 T01601002  RH  033%=      5-min Rain = 0
KLA1 111635Z 03012G17KT 16/M00 A302 RMK A01 T01601003  RH  033%=      5-min Rain = 0
KLA1 111636Z 01007KT 16/M00 A302 RMK A01 T01601004  RH  033%=      5-min Rain = 0
KLA1 111637Z 01011KT 16/M00 A302 RMK A01 T01581004  RH  033%=      5-min Rain = 0
KLA1 111638Z 01009KT 16/M00 A302 RMK A01 T01581004  RH  033%=      5-min Rain = 0
KLA1 111639Z 01009KT 16/M00 A302 RMK A01 T01591004  RH  033%=      5-min Rain = 0
KLA1 111640Z 35008KT 16/M00 A302 RMK A01 T01601004  RH  033%=      5-min Rain = 0
KLA1 111641Z 34008KT 16/M00 A302 RMK A01 T01601004  RH  033%=      5-min Rain = 0
KLA1 111642Z 00009KT 16/M00 A302 RMK A01 T01601004  RH  033%=      5-min Rain = 0
KLA1 111643Z 01007KT 16/M00 A302 RMK A01 T01601004  RH  033%=      5-min Rain = 0
KLA1 111644Z 01006KT 16/M00 A302 RMK A01 T01601004  RH  033%=      5-min Rain = 0
KLA1 111645Z 01008KT 16/M00 A302 RMK A01 T01611004  RH  032%=      5-min Rain = 0
KLA1 111646Z 02006KT 16/M01 A302 RMK A01 T01611005  RH  032%=      5-min Rain = 0
KLA1 111647Z 02005KT 16/M00 A302 RMK A01 T01611004  RH  032%=      5-min Rain = 0
KLA1 111648Z 02007KT 16/M00 A302 RMK A01 T01611004  RH  032%=      5-min Rain = 0
KLA1 111649Z 00012KT 16/M01 A302 RMK A01 T01621005  RH  032%=      5-min Rain = 0
KLA1 111650Z 36009KT 16/M01 A302 RMK A01 T01611006  RH  032%=      5-min Rain = 0
KLA1 111651Z 00009KT 16/M01 A302 RMK A01 T01611006  RH  032%=      5-min Rain = 0
KLA1 111652Z 36012KT 16/M01 A302 RMK A01 T01611006  RH  032%=      5-min Rain = 0
KLA1 111653Z 01011KT 16/M01 A3021 RMK A01 T01611007  RH  032%=      5-min Rain = 0
KLA1 111654Z 01010KT 16/M01 A3021 RMK A01 T01601008  RH  032%=      5-min Rain = 0
KLA1 111655Z 01011KT 16/M01 A3021 RMK A01 T01611007  RH  032%=      5-min Rain = 0
KLA1 111656Z 01010G16KT 16/M01 A3021 RMK A01 T01611008  RH  032%=      5-min Rain = 0
KLA1 111657Z 02011KT 16/M01 A3021 RMK A01 T01611008  RH  032%=      5-min Rain = 0
KLA1 111658Z 00010KT 16/M01 A3021 RMK A01 T01611008  RH  032%=      5-min Rain = 0
KLA1 111659Z 35008KT 16/M01 A302 RMK A01 T01611008  RH  031%=      5-min Rain = 0
KLA1 111700Z 35007KT 16/M01 A3021 RMK A01 T01611007  RH  032%=      5-min Rain = 0
KLA1 111701Z 36006KT 16/M01 A3021 RMK A01 T01621007  RH  031%=      5-min Rain = 0
KLA1 111702Z 36008G13KT 16/M01 A3021 RMK A01 T01631008  RH  031%=      5-min Rain = 0
KLA1 111703Z 36009G14KT 16/M01 A302 RMK A01 T01631009  RH  031%=      5-min Rain = 0
KLA1 111704Z 36011KT 16/M01 A3021 RMK A01 T01631009  RH  031%=      5-min Rain = 0
KLA1 111705Z 00013KT 16/M01 A3021 RMK A01 T01631011  RH  030%=      5-min Rain = 0
KLA1 111706Z 01011KT 16/M01 A3021 RMK A01 T01621012  RH  030%=      5-min Rain = 0
KLA1 111707Z 01014G19KT 16/M01 A3021 RMK A01 T01621012  RH  030%=      5-min Rain = 0
KLA1 111708Z 02015KT 16/M01 A3021 RMK A01 T01621013  RH  030%=      5-min Rain = 0
KLA1 111709Z 02012KT 16/M01 A3021 RMK A01 T01611014  RH  030%=      5-min Rain = 0
KLA1 111710Z 01012G17KT 16/M01 A3021 RMK A01 T01611014  RH  030%=      5-min Rain = 0
KLA1 111711Z 01013KT 16/M02 A3021 RMK A01 T01601015  RH  030%=      5-min Rain = 0
KLA1 111712Z 02010KT 16/M02 A3021 RMK A01 T01601016  RH  030%=      5-min Rain = 0
KLA1 111713Z 02008KT 16/M02 A3021 RMK A01 T01601015  RH  030%=      5-min Rain = 0
KLA1 111714Z 04012KT 16/M02 A3021 RMK A01 T01601015  RH  030%=      5-min Rain = 0
KLA1 111715Z 04014KT 16/M02 A3021 RMK A01 T01611017  RH  030%=      5-min Rain = 0
KLA1 111716Z 04012G18KT 16/M02 A3021 RMK A01 T01601018  RH  030%=      5-min Rain = 0
KLA1 111717Z 04013G18KT 16/M02 A3021 RMK A01 T01591018  RH  030%=      5-min Rain = 0
KLA1 111718Z 04010KT 16/M02 A3021 RMK A01 T01591018  RH  030%=      5-min Rain = 0
KLA1 111719Z 04011KT 16/M02 A3021 RMK A01 T01591018  RH  030%=      5-min Rain = 0
KLA1 111720Z 04010KT 16/M02 A3021 RMK A01 T01591018  RH  030%=      5-min Rain = 0
KLA1 111721Z 04011KT 16/M02 A3021 RMK A01 T01591018  RH  030%=      5-min Rain = 0
KLA1 111722Z 04009KT 16/M02 A3021 RMK A01 T01591019  RH  030%=      5-min Rain = 0
KLA1 111723Z 03010KT 16/M02 A3021 RMK A01 T01591018  RH  030%=      5-min Rain = 0
KLA1 111724Z 01012KT 16/M02 A3021 RMK A01 T01591017  RH  030%=      5-min Rain = 0
KLA1 111725Z 02009KT 16/M02 A3021 RMK A01 T01591017  RH  030%=      5-min Rain = 0
KLA1 111726Z 02012KT 16/M02 A3021 RMK A01 T01591017  RH  030%=      5-min Rain = 0
KLA1 111727Z 00009KT 16/M02 A3021 RMK A01 T01591017  RH  030%=      5-min Rain = 0
KLA1 111728Z 01009KT 16/M02 A3021 RMK A01 T01591017  RH  030%=      5-min Rain = 0
KLA1 111729Z 36010KT 16/M02 A3021 RMK A01 T01591016  RH  030%=      5-min Rain = 0
KLA1 111730Z 02011KT 16/M02 A3021 RMK A01 T01591017  RH  030%=      5-min Rain = 0
KLA1 111731Z 03010KT 16/M02 A3021 RMK A01 T01591017  RH  030%=      5-min Rain = 0
KLA1 111732Z 36008KT 16/M02 A3021 RMK A01 T01591017  RH  030%=      5-min Rain = 0
KLA1 111733Z 34008KT 16/M02 A3021 RMK A01 T01591017  RH  030%=      5-min Rain = 0
KLA1 111734Z 35011G16KT 16/M02 A3021 RMK A01 T01591017  RH  030%=      5-min Rain = 0
KLA1 111735Z 35012KT 16/M02 A3021 RMK A01 T01581018  RH  030%=      5-min Rain = 0
KLA1 111736Z 35010KT 16/M02 A3021 RMK A01 T01581018  RH  030%=      5-min Rain = 0
KLA1 111737Z 35008KT 16/M02 A3021 RMK A01 T01571018  RH  030%=      5-min Rain = 0
KLA1 111738Z 00009KT 16/M02 A3021 RMK A01 T01571018  RH  030%=      5-min Rain = 0
KLA1 111739Z 00009KT 16/M02 A3022 RMK A01 T01571018  RH  030%=      5-min Rain = 0
KLA1 111740Z 35009KT 16/M02 A3021 RMK A01 T01571019  RH  030%=      5-min Rain = 0
KLA1 111741Z 36009KT 16/M02 A3021 RMK A01 T01571019  RH  030%=      5-min Rain = 0
KLA1 111742Z 01010G15KT 16/M02 A3021 RMK A01 T01571019  RH  030%=      5-min Rain = 0
KLA1 111743Z 00013KT 16/M02 A3022 RMK A01 T01571019  RH  030%=      5-min Rain = 0
KLA1 111744Z 35010KT 16/M02 A3021 RMK A01 T01581019  RH  030%=      5-min Rain = 0
KLA1 111745Z 36011G16KT 16/M02 A3021 RMK A01 T01571019  RH  030%=      5-min Rain = 0
KLA1 111746Z 00010KT 16/M02 A3021 RMK A01 T01571019  RH  030%=      5-min Rain = 0
KLA1 111747Z 36011G17KT 16/M02 A3021 RMK A01 T01571020  RH  030%=      5-min Rain = 0
KLA1 111748Z 36012KT 16/M02 A3021 RMK A01 T01571020  RH  030%=      5-min Rain = 0
KLA1 111749Z 01011KT 16/M02 A3022 RMK A01 T01571020  RH  030%=      5-min Rain = 0
KLA1 111750Z 02014KT 16/M02 A3022 RMK A01 T01561020  RH  030%=      5-min Rain = 0
KLA1 111751Z 01014KT 16/M02 A3022 RMK A01 T01571020  RH  030%=      5-min Rain = 0
KLA1 111752Z 02011KT 16/M02 A3022 RMK A01 T01571020  RH  030%=      5-min Rain = 0
KLA1 111753Z 02012KT 16/M02 A3021 RMK A01 T01561020  RH  030%=      5-min Rain = 0
KLA1 111754Z 01010KT 16/M02 A3021 RMK A01 T01561021  RH  030%=      5-min Rain = 0
KLA1 111755Z 02009KT 16/M02 A3021 RMK A01 T01571020  RH  030%=      5-min Rain = 0
KLA1 111756Z 02011KT 16/M02 A3021 RMK A01 T01561021  RH  030%=      5-min Rain = 0
KLA1 111757Z 02010KT 16/M02 A3021 RMK A01 T01561021  RH  030%=      5-min Rain = 0
KLA1 111758Z 02008KT 16/M02 A3021 RMK A01 T01561021  RH  030%=      5-min Rain = 0
KLA1 111759Z 02010KT 16/M02 A3021 RMK A01 T01561021  RH  030%=      5-min Rain = 0
KLA1 111800Z 00009KT 16/M02 A3021 RMK A01 T01561021  RH  030%=      5-min Rain = 0
KLA1 111801Z 36011KT 16/M02 A3021 RMK A01 T01571021  RH  029%=      5-min Rain = 0
KLA1 111802Z 00012G17KT 16/M02 A3021 RMK A01 T01571022  RH  029%=      5-min Rain = 0
KLA1 111803Z 00012KT 16/M02 A3022 RMK A01 T01571022  RH  029%=      5-min Rain = 0
KLA1 111804Z 00012KT 16/M02 A3021 RMK A01 T01571022  RH  029%=      5-min Rain = 0
KLA1 111805Z 01010KT 16/M02 A3021 RMK A01 T01571022  RH  029%=      5-min Rain = 0
KLA1 111806Z 01010KT 16/M02 A3021 RMK A01 T01581021  RH  029%=      5-min Rain = 0
KLA1 111807Z 00008KT 16/M02 A3021 RMK A01 T01591022  RH  029%=      5-min Rain = 0
KLA1 111808Z 01008KT 16/M02 A3021 RMK A01 T01591022  RH  029%=      5-min Rain = 0
KLA1 111809Z 36008KT 16/M02 A3021 RMK A01 T01591021  RH  029%=      5-min Rain = 0
KLA1 111810Z 36009KT 16/M02 A3021 RMK A01 T01591021  RH  029%=      5-min Rain = 0
KLA1 111811Z 01008KT 16/M02 A3021 RMK A01 T01591022  RH  029%=      5-min Rain = 0
KLA1 111812Z 02005KT 16/M02 A3021 RMK A01 T01591020  RH  029%=      5-min Rain = 0
KLA1 111813Z 00009KT 16/M02 A3021 RMK A01 T01611020  RH  029%=      5-min Rain = 0
KLA1 111814Z 35007KT 16/M02 A3021 RMK A01 T01611020  RH  029%=      5-min Rain = 0
KLA1 111815Z 35007KT 16/M02 A3021 RMK A01 T01621019  RH  029%=      5-min Rain = 0
KLA1 111816Z 00009KT 16/M02 A3021 RMK A01 T01621019  RH  029%=      5-min Rain = 0
KLA1 111817Z 01007KT 16/M02 A3022 RMK A01 T01621019  RH  029%=      5-min Rain = 0
KLA1 111818Z 02011KT 16/M02 A3022 RMK A01 T01631018  RH  029%=      5-min Rain = 0
KLA1 111819Z 01010KT 16/M02 A3022 RMK A01 T01631019  RH  029%=      5-min Rain = 0
KLA1 111820Z 01010KT 16/M02 A3022 RMK A01 T01631019  RH  029%=      5-min Rain = 0
KLA1 111821Z 00012G18KT 16/M02 A3021 RMK A01 T01631019  RH  029%=      5-min Rain = 0
KLA1 111822Z 01013KT 16/M02 A3021 RMK A01 T01621020  RH  029%=      5-min Rain = 0
KLA1 111823Z 01010KT 16/M02 A3022 RMK A01 T01621019  RH  029%=      5-min Rain = 0
KLA1 111824Z 01008KT 16/M02 A3022 RMK A01 T01621019  RH  029%=      5-min Rain = 0
KLA1 111825Z 01010KT 16/M02 A3021 RMK A01 T01631019  RH  029%=      5-min Rain = 0
KLA1 111826Z 01012KT 16/M02 A3021 RMK A01 T01631019  RH  029%=      5-min Rain = 0
KLA1 111827Z 00010KT 16/M02 A3021 RMK A01 T01631019  RH  029%=      5-min Rain = 0
KLA1 111828Z 01009KT 16/M02 A3021 RMK A01 T01631019  RH  029%=      5-min Rain = 0
KLA1 111829Z 01011KT 16/M02 A3021 RMK A01 T01641019  RH  029%=      5-min Rain = 0
KLA1 111830Z 00011KT 16/M02 A3021 RMK A01 T01641020  RH  028%=      5-min Rain = 0
KLA1 111831Z 01008KT 16/M02 A3021 RMK A01 T01641021  RH  028%=      5-min Rain = 0
KLA1 111832Z 01010G15KT 17/M02 A3021 RMK A01 T01651021  RH  028%=      5-min Rain = 0
KLA1 111833Z 00012KT 17/M02 A3021 RMK A01 T01661022  RH  028%=      5-min Rain = 0
KLA1 111834Z 00011KT 17/M02 A3021 RMK A01 T01651022  RH  028%=      5-min Rain = 0
KLA1 111835Z 01010KT 17/M02 A3021 RMK A01 T01651023  RH  028%=      5-min Rain = 0
KLA1 111836Z 01008KT 17/M02 A3021 RMK A01 T01651022  RH  028%=      5-min Rain = 0
KLA1 111837Z 36009KT 17/M02 A3021 RMK A01 T01651021  RH  028%=      5-min Rain = 0
KLA1 111838Z 34013KT 17/M02 A3021 RMK A01 T01661023  RH  027%=      5-min Rain = 0
KLA1 111839Z 35008KT 17/M02 A3021 RMK A01 T01651023  RH  028%=      5-min Rain = 0
KLA1 111840Z 01007KT 17/M02 A3021 RMK A01 T01661020  RH  028%=      5-min Rain = 0
KLA1 111841Z 02008G13KT 17/M02 A3021 RMK A01 T01681022  RH  027%=      5-min Rain = 0
KLA1 111842Z 01012KT 17/M02 A3021 RMK A01 T01681021  RH  027%=      5-min Rain = 0
KLA1 111843Z 35010KT 17/M02 A3021 RMK A01 T01691021  RH  027%=      5-min Rain = 0
KLA1 111844Z 36010KT 17/M02 A3021 RMK A01 T01691022  RH  027%=      5-min Rain = 0
KLA1 111845Z 35010KT 17/M02 A3021 RMK A01 T01681023  RH  027%=      5-min Rain = 0
KLA1 111846Z 35011KT 17/M02 A3021 RMK A01 T01661024  RH  027%=      5-min Rain = 0
KLA1 111847Z 01010KT 17/M02 A3021 RMK A01 T01661023  RH  027%=      5-min Rain = 0
KLA1 111848Z 01008KT 17/M02 A3021 RMK A01 T01651023  RH  027%=      5-min Rain = 0
KLA1 111849Z 02011KT 17/M02 A3021 RMK A01 T01661022  RH  028%=      5-min Rain = 0
KLA1 111850Z 03009G14KT 17/M02 A3021 RMK A01 T01681022  RH  027%=      5-min Rain = 0
KLA1 111851Z 02011KT 17/M02 A3021 RMK A01 T01671023  RH  027%=      5-min Rain = 0
KLA1 111852Z 02009KT 17/M02 A3021 RMK A01 T01661024  RH  027%=      5-min Rain = 0
KLA1 111853Z 03011KT 17/M02 A3021 RMK A01 T01661024  RH  027%=      5-min Rain = 0
KLA1 111854Z 02010KT 17/M02 A3021 RMK A01 T01651024  RH  027%=      5-min Rain = 0
KLA1 111855Z 02008KT 17/M02 A3021 RMK A01 T01661024  RH  027%=      5-min Rain = 0
KLA1 111856Z 03011KT 17/M02 A3021 RMK A01 T01671023  RH  027%=      5-min Rain = 0
KLA1 111857Z 01010G16KT 17/M02 A3021 RMK A01 T01671024  RH  027%=      5-min Rain = 0
KLA1 111858Z 01009KT 17/M02 A3021 RMK A01 T01661024  RH  027%=      5-min Rain = 0
KLA1 111859Z 01010G16KT 17/M02 A3021 RMK A01 T01661024  RH  027%=      5-min Rain = 0
KLA1 111900Z 36013KT 17/M02 A3021 RMK A01 T01661024  RH  027%=      5-min Rain = 0
KLA1 111901Z 00011KT 17/M03 A3021 RMK A01 T01661025  RH  027%=      5-min Rain = 0
KLA1 111902Z 00009KT 17/M03 A3021 RMK A01 T01651025  RH  027%=      5-min Rain = 0
KLA1 111903Z 01009KT 17/M03 A3021 RMK A01 T01651025  RH  027%=      5-min Rain = 0
KLA1 111904Z 02011KT 17/M02 A3021 RMK A01 T01661024  RH  027%=      5-min Rain = 0
KLA1 111905Z 01013KT 17/M03 A3021 RMK A01 T01671025  RH  027%=      5-min Rain = 0
KLA1 111906Z 02011G16KT 17/M03 A3021 RMK A01 T01671025  RH  027%=      5-min Rain = 0
KLA1 111907Z 02011KT 17/M03 A3021 RMK A01 T01671025  RH  027%=      5-min Rain = 0
KLA1 111908Z 02013KT 17/M03 A3021 RMK A01 T01661026  RH  027%=      5-min Rain = 0
KLA1 111909Z 03013KT 17/M03 A3021 RMK A01 T01661026  RH  027%=      5-min Rain = 0
KLA1 111910Z 03012KT 17/M03 A3021 RMK A01 T01661026  RH  027%=      5-min Rain = 0
KLA1 111911Z 03010KT 17/M03 A3021 RMK A01 T01671026  RH  027%=      5-min Rain = 0
KLA1 111912Z 01009G15KT 17/M03 A3021 RMK A01 T01681026  RH  026%=      5-min Rain = 0
KLA1 111913Z 35008KT 17/M03 A3021 RMK A01 T01691026  RH  026%=      5-min Rain = 0
KLA1 111914Z 36007KT 17/M03 A3021 RMK A01 T01691028  RH  026%=      5-min Rain = 0
KLA1 111915Z 35011G18KT 17/M03 A3021 RMK A01 T01691026  RH  026%=      5-min Rain = 0
KLA1 111916Z 00014KT 17/M03 A3021 RMK A01 T01691028  RH  026%=      5-min Rain = 0
KLA1 111917Z 01014KT 17/M03 A3021 RMK A01 T01681028  RH  026%=      5-min Rain = 0
KLA1 111918Z 03010KT 17/M03 A3021 RMK A01 T01671028  RH  026%=      5-min Rain = 0
KLA1 111919Z 02009KT 17/M03 A3021 RMK A01 T01671028  RH  026%=      5-min Rain = 0
KLA1 111920Z 00007KT 17/M03 A3021 RMK A01 T01671028  RH  026%=      5-min Rain = 0
KLA1 111921Z 36008KT 17/M03 A3021 RMK A01 T01681027  RH  026%=      5-min Rain = 0
KLA1 111922Z 35011KT 17/M03 A3021 RMK A01 T01711026  RH  026%=      5-min Rain = 0
KLA1 111923Z 34011KT 17/M03 A3021 RMK A01 T01711029  RH  025%=      5-min Rain = 0
KLA1 111924Z 34011KT 17/M03 A3021 RMK A01 T01701029  RH  026%=      5-min Rain = 0
KLA1 111925Z 35011KT 17/M03 A3021 RMK A01 T01691029  RH  026%=      5-min Rain = 0
KLA1 111926Z 01011KT 17/M03 A3021 RMK A01 T01691030  RH  026%=      5-min Rain = 0
KLA1 111927Z 35013G18KT 17/M03 A3021 RMK A01 T01681029  RH  026%=      5-min Rain = 0
KLA1 111928Z 35013KT 17/M03 A3022 RMK A01 T01691028  RH  026%=      5-min Rain = 0
KLA1 111929Z 34011KT 17/M03 A3021 RMK A01 T01661030  RH  026%=      5-min Rain = 0
KLA1 111930Z 34007KT 17/M03 A3021 RMK A01 T01651030  RH  026%=      5-min Rain = 0
KLA1 111931Z 35008G13KT 16/M03 A3021 RMK A01 T01631029  RH  027%=      5-min Rain = 0
KLA1 111932Z 34009G14KT 16/M03 A3021 RMK A01 T01641030  RH  026%=      5-min Rain = 0
KLA1 111933Z 34013KT 16/M03 A3021 RMK A01 T01641030  RH  026%=      5-min Rain = 0
KLA1 111934Z 35010KT 16/M03 A3021 RMK A01 T01641030  RH  026%=      5-min Rain = 0
KLA1 111935Z 36012KT 16/M03 A3021 RMK A01 T01641030  RH  026%=      5-min Rain = 0
KLA1 111936Z 02012KT 16/M03 A3021 RMK A01 T01641031  RH  026%=      5-min Rain = 0
KLA1 111937Z 35012G17KT 16/M03 A3021 RMK A01 T01631032  RH  026%=      5-min Rain = 0
KLA1 111938Z 00011KT 16/M03 A3021 RMK A01 T01631032  RH  026%=      5-min Rain = 0
KLA1 111939Z 01010KT 17/M03 A3021 RMK A01 T01651033  RH  026%=      5-min Rain = 0
KLA1 111940Z 00010KT 17/M04 A3021 RMK A01 T01651036  RH  025%=      5-min Rain = 0
KLA1 111941Z 36010G15KT 16/M04 A3021 RMK A01 T01641036  RH  025%=      5-min Rain = 0
KLA1 111942Z 01010KT 16/M04 A302 RMK A01 T01641036  RH  025%=      5-min Rain = 0
KLA1 111943Z 01009KT 16/M04 A302 RMK A01 T01641036  RH  025%=      5-min Rain = 0
KLA1 111944Z 01011KT 17/M04 A3021 RMK A01 T01651036  RH  025%=      5-min Rain = 0
KLA1 111945Z 02014KT 17/M04 A3021 RMK A01 T01661039  RH  024%=      5-min Rain = 0
KLA1 111946Z 01013KT 17/M04 A3021 RMK A01 T01661043  RH  024%=      5-min Rain = 0
KLA1 111947Z 02010G15KT 17/M04 A3021 RMK A01 T01651044  RH  024%=      5-min Rain = 0
KLA1 111948Z 01009KT 16/M04 A302 RMK A01 T01641044  RH  024%=      5-min Rain = 0
KLA1 111949Z 36010KT 16/M04 A302 RMK A01 T01641044  RH  024%=      5-min Rain = 0
KLA1 111950Z 02008KT 16/M04 A302 RMK A01 T01641044  RH  024%=      5-min Rain = 0
KLA1 111951Z 01009KT 17/M05 A302 RMK A01 T01651045  RH  023%=      5-min Rain = 0
KLA1 111952Z 01009KT 17/M04 A302 RMK A01 T01651043  RH  024%=      5-min Rain = 0
KLA1 111953Z 01008KT 16/M04 A302 RMK A01 T01641043  RH  024%=      5-min Rain = 0
KLA1 111954Z 03009KT 17/M04 A302 RMK A01 T01651039  RH  024%=      5-min Rain = 0
KLA1 111955Z 03010KT 17/M04 A302 RMK A01 T01661038  RH  024%=      5-min Rain = 0
KLA1 111956Z 01009KT 17/M04 A302 RMK A01 T01661037  RH  025%=      5-min Rain = 0
KLA1 111957Z 02009KT 17/M04 A302 RMK A01 T01671037  RH  025%=      5-min Rain = 0
KLA1 111958Z 02009KT 17/M04 A302 RMK A01 T01671035  RH  025%=      5-min Rain = 0
KLA1 111959Z 01011KT 17/M04 A302 RMK A01 T01681036  RH  025%=      5-min Rain = 0
KLA1 112000Z 01012G17KT 17/M04 A302 RMK A01 T01691037  RH  024%=      5-min Rain = 0
KLA1 112001Z 36008KT 17/M04 A302 RMK A01 T01701038  RH  024%=      5-min Rain = 0
KLA1 112002Z 36006KT 17/M04 A302 RMK A01 T01701039  RH  024%=      5-min Rain = 0
KLA1 112003Z 01007KT 17/M04 A302 RMK A01 T01711037  RH  024%=      5-min Rain = 0
KLA1 112004Z 35007KT 17/M04 A302 RMK A01 T01731037  RH  024%=      5-min Rain = 0
KLA1 112005Z 01008KT 18/M04 A302 RMK A01 T01751037  RH  023%=      5-min Rain = 0
KLA1 112006Z 36007KT 17/M04 A302 RMK A01 T01731039  RH  023%=      5-min Rain = 0
KLA1 112007Z 01007KT 17/M04 A302 RMK A01 T01721038  RH  024%=      5-min Rain = 0
KLA1 112008Z 35008KT 17/M04 A302 RMK A01 T01741037  RH  024%=      5-min Rain = 0
KLA1 112009Z 01010KT 18/M04 A302 RMK A01 T01751038  RH  023%=      5-min Rain = 0
KLA1 112010Z 00014KT 18/M04 A302 RMK A01 T01751039  RH  023%=      5-min Rain = 0
KLA1 112011Z 00011KT 17/M04 A302 RMK A01 T01731040  RH  023%=      5-min Rain = 0
KLA1 112012Z 00008KT 17/M04 A302 RMK A01 T01711040  RH  023%=      5-min Rain = 0
KLA1 112013Z 02011KT 17/M04 A302 RMK A01 T01711039  RH  023%=      5-min Rain = 0
KLA1 112014Z 00008KT 17/M04 A302 RMK A01 T01721039  RH  023%=      5-min Rain = 0
KLA1 112015Z 35009KT 17/M04 A302 RMK A01 T01731038  RH  023%=      5-min Rain = 0
KLA1 112016Z 35014KT 17/M04 A302 RMK A01 T01741039  RH  023%=      5-min Rain = 0
KLA1 112017Z 35014G19KT 17/M04 A3021 RMK A01 T01721041  RH  023%=      5-min Rain = 0
KLA1 112018Z 35011KT 17/M04 A3021 RMK A01 T01701042  RH  023%=      5-min Rain = 0
KLA1 112019Z 35012G17KT 17/M04 A3021 RMK A01 T01681041  RH  023%=      5-min Rain = 0
KLA1 112020Z 34013G19KT 17/M04 A302 RMK A01 T01691041  RH  024%=      5-min Rain = 0
KLA1 112021Z 34014G20KT 17/M04 A302 RMK A01 T01691041  RH  023%=      5-min Rain = 0
KLA1 112022Z 35010G16KT 17/M04 A302 RMK A01 T01691042  RH  023%=      5-min Rain = 0
KLA1 112023Z 01010KT 17/M04 A302 RMK A01 T01691041  RH  023%=      5-min Rain = 0
KLA1 112024Z 01011G16KT 17/M04 A302 RMK A01 T01701038  RH  024%=      5-min Rain = 0
KLA1 112025Z 01013KT 17/M04 A3021 RMK A01 T01721038  RH  023%=      5-min Rain = 0
KLA1 112026Z 35012KT 17/M04 A3021 RMK A01 T01711040  RH  023%=      5-min Rain = 0
KLA1 112027Z 36012KT 17/M04 A302 RMK A01 T01701041  RH  023%=      5-min Rain = 0
KLA1 112028Z 01010KT 17/M04 A302 RMK A01 T01691042  RH  023%=      5-min Rain = 0
KLA1 112029Z 36013G18KT 17/M04 A302 RMK A01 T01681041  RH  024%=      5-min Rain = 0
KLA1 112030Z 00012KT 17/M04 A302 RMK A01 T01681041  RH  024%=      5-min Rain = 0
KLA1 112031Z 00011KT 17/M04 A302 RMK A01 T01691040  RH  024%=      5-min Rain = 0
KLA1 112032Z 00010KT 17/M04 A302 RMK A01 T01691042  RH  023%=      5-min Rain = 0
KLA1 112033Z 01008KT 17/M04 A302 RMK A01 T01701042  RH  023%=      5-min Rain = 0
KLA1 112034Z 02008G14KT 17/M04 A302 RMK A01 T01701042  RH  023%=      5-min Rain = 0
KLA1 112035Z 00010KT 17/M04 A302 RMK A01 T01711041  RH  023%=      5-min Rain = 0
KLA1 112036Z 00010KT 17/M04 A302 RMK A01 T01721042  RH  023%=      5-min Rain = 0
KLA1 112037Z 36012KT 17/M04 A302 RMK A01 T01731043  RH  022%=      5-min Rain = 0
KLA1 112038Z 01010G15KT 17/M04 A302 RMK A01 T01731043  RH  022%=      5-min Rain = 0
KLA1 112039Z 02008KT 17/M04 A302 RMK A01 T01741042  RH  023%=      5-min Rain = 0
KLA1 112040Z 02008G13KT 18/M04 A302 RMK A01 T01761042  RH  022%=      5-min Rain = 0
KLA1 112041Z 01010KT 18/M04 A302 RMK A01 T01771043  RH  022%=      5-min Rain = 0
KLA1 112042Z 34011KT 18/M05 A302 RMK A01 T01771045  RH  022%=      5-min Rain = 0
KLA1 112043Z 00013G20KT 18/M05 A302 RMK A01 T01751046  RH  022%=      5-min Rain = 0
KLA1 112044Z 02013G18KT 17/M05 A302 RMK A01 T01741047  RH  022%=      5-min Rain = 0
KLA1 112045Z 35011KT 17/M05 A302 RMK A01 T01741046  RH  022%=      5-min Rain = 0
KLA1 112046Z 36011KT 17/M05 A302 RMK A01 T01741046  RH  022%=      5-min Rain = 0
KLA1 112047Z 36010KT 17/M05 A302 RMK A01 T01741046  RH  022%=      5-min Rain = 0
KLA1 112048Z 02012KT 17/M05 A302 RMK A01 T01741047  RH  022%=      5-min Rain = 0
KLA1 112049Z 02010G15KT 17/M05 A302 RMK A01 T01741046  RH  022%=      5-min Rain = 0
KLA1 112050Z 36011KT 18/M05 A302 RMK A01 T01751045  RH  022%=      5-min Rain = 0
KLA1 112051Z 35008KT 17/M05 A302 RMK A01 T01741045  RH  022%=      5-min Rain = 0
KLA1 112052Z 01009KT 18/M04 A302 RMK A01 T01751044  RH  022%=      5-min Rain = 0
KLA1 112053Z 02012KT 18/M04 A302 RMK A01 T01781042  RH  022%=      5-min Rain = 0
KLA1 112054Z 01012KT 18/M05 A302 RMK A01 T01781045  RH  021%=      5-min Rain = 0
KLA1 112055Z 03009G15KT 18/M04 A302 RMK A01 T01771043  RH  022%=      5-min Rain = 0
KLA1 112056Z 02014KT 18/M04 A302 RMK A01 T01781042  RH  022%=      5-min Rain = 0
KLA1 112057Z 02012KT 18/M04 A302 RMK A01 T01781043  RH  022%=      5-min Rain = 0
KLA1 112058Z 02014KT 18/M04 A302 RMK A01 T01771044  RH  022%=      5-min Rain = 0
KLA1 112059Z 02011KT 17/M04 A302 RMK A01 T01741044  RH  022%=      5-min Rain = 0
KLA1 112100Z 01010KT 17/M04 A302 RMK A01 T01721044  RH  023%=      5-min Rain = 0
KLA1 112101Z 01009KT 17/M04 A302 RMK A01 T01731044  RH  022%=      5-min Rain = 0
KLA1 112102Z 01012KT 17/M04 A302 RMK A01 T01731044  RH  022%=      5-min Rain = 0
KLA1 112103Z 02010KT 17/M04 A3019 RMK A01 T01741044  RH  022%=      5-min Rain = 0
KLA1 112104Z 03011KT 17/M05 A3019 RMK A01 T01731045  RH  022%=      5-min Rain = 0
KLA1 112105Z 01008G13KT 17/M05 A3019 RMK A01 T01721046  RH  022%=      5-min Rain = 0
KLA1 112106Z 00011KT 17/M05 A3019 RMK A01 T01721045  RH  022%=      5-min Rain = 0
KLA1 112107Z 01011KT 17/M04 A3019 RMK A01 T01731044  RH  022%=      5-min Rain = 0
KLA1 112108Z 36014G20KT 18/M05 A3019 RMK A01 T01751045  RH  022%=      5-min Rain = 0
KLA1 112109Z 01013G18KT 17/M05 A3019 RMK A01 T01731046  RH  022%=      5-min Rain = 0
KLA1 112110Z 01009KT 17/M05 A3019 RMK A01 T01721045  RH  022%=      5-min Rain = 0
KLA1 112111Z 01009KT 17/M04 A3019 RMK A01 T01741044  RH  022%=      5-min Rain = 0
KLA1 112112Z 35013KT 18/M04 A302 RMK A01 T01771044  RH  022%=      5-min Rain = 0
KLA1 112113Z 01011KT 18/M05 A302 RMK A01 T01771046  RH  022%=      5-min Rain = 0
KLA1 112114Z 03010KT 18/M05 A302 RMK A01 T01771045  RH  022%=      5-min Rain = 0
KLA1 112115Z 02011KT 18/M05 A302 RMK A01 T01791045  RH  021%=      5-min Rain = 0
KLA1 112116Z 03011G16KT 18/M05 A302 RMK A01 T01781047  RH  021%=      5-min Rain = 0
KLA1 112117Z 03008KT 18/M04 A302 RMK A01 T01771044  RH  022%=      5-min Rain = 0
KLA1 112118Z 04008KT 18/M04 A302 RMK A01 T01781043  RH  022%=      5-min Rain = 0
KLA1 112119Z 03009KT 18/M04 A3019 RMK A01 T01791044  RH  022%=      5-min Rain = 0
KLA1 112120Z 02010KT 18/M05 A3019 RMK A01 T01791045  RH  021%=      5-min Rain = 0
KLA1 112121Z 03008KT 18/M05 A3019 RMK A01 T01771047  RH  021%=      5-min Rain = 0
KLA1 112122Z 02010G15KT 18/M05 A3019 RMK A01 T01761047  RH  022%=      5-min Rain = 0
KLA1 112123Z 05014G19KT 18/M05 A302 RMK A01 T01761048  RH  021%=      5-min Rain = 0
KLA1 112124Z 03010G15KT 17/M05 A3019 RMK A01 T01741050  RH  021%=      5-min Rain = 0
KLA1 112125Z 02012KT 17/M05 A302 RMK A01 T01741048  RH  022%=      5-min Rain = 0
KLA1 112126Z 02012KT 18/M05 A302 RMK A01 T01751050  RH  021%=      5-min Rain = 0
KLA1 112127Z 02012G17KT 17/M05 A302 RMK A01 T01731050  RH  021%=      5-min Rain = 0
KLA1 112128Z 01011G16KT 17/M05 A302 RMK A01 T01731050  RH  021%=      5-min Rain = 0
KLA1 112129Z 02007KT 17/M05 A302 RMK A01 T01731050  RH  021%=      5-min Rain = 0
KLA1 112130Z 02008KT 17/M05 A3019 RMK A01 T01741049  RH  021%=      5-min Rain = 0
KLA1 112131Z 00012KT 18/M05 A3019 RMK A01 T01751050  RH  021%=      5-min Rain = 0
KLA1 112132Z 03012KT 17/M05 A3019 RMK A01 T01741052  RH  021%=      5-min Rain = 0
KLA1 112133Z 05012G17KT 18/M05 A3019 RMK A01 T01751052  RH  021%=      5-min Rain = 0
KLA1 112134Z 04009KT 17/M05 A3019 RMK A01 T01741052  RH  021%=      5-min Rain = 0
KLA1 112135Z 06009KT 17/M05 A3019 RMK A01 T01731053  RH  021%=      5-min Rain = 0
KLA1 112136Z 03009KT 18/M05 A3019 RMK A01 T01751052  RH  021%=      5-min Rain = 0
KLA1 112137Z 01009G15KT 18/M05 A3019 RMK A01 T01761051  RH  021%=      5-min Rain = 0
KLA1 112138Z 04011KT 18/M05 A3019 RMK A01 T01771051  RH  021%=      5-min Rain = 0
KLA1 112139Z 03008KT 18/M05 A3019 RMK A01 T01771052  RH  021%=      5-min Rain = 0
KLA1 112140Z 02007KT 18/M05 A3019 RMK A01 T01761051  RH  021%=      5-min Rain = 0
KLA1 112141Z 03005KT 18/M05 A3019 RMK A01 T01781050  RH  021%=      5-min Rain = 0
KLA1 112142Z 04008KT 18/M05 A3019 RMK A01 T01811048  RH  021%=      5-min Rain = 0
KLA1 112143Z 02007KT 18/M05 A3019 RMK A01 T01821051  RH  020%=      5-min Rain = 0
KLA1 112144Z 03008KT 18/M05 A3019 RMK A01 T01811051  RH  020%=      5-min Rain = 0
KLA1 112145Z 05007KT 18/M05 A3018 RMK A01 T01811050  RH  020%=      5-min Rain = 0
KLA1 112146Z 02008KT 18/M05 A3018 RMK A01 T01811050  RH  020%=      5-min Rain = 0
KLA1 112147Z 02010KT 18/M05 A3018 RMK A01 T01841050  RH  020%=      5-min Rain = 0
KLA1 112148Z 02011KT 19/M05 A3018 RMK A01 T01871053  RH  019%=      5-min Rain = 0
KLA1 112149Z 04011KT 19/M06 A3019 RMK A01 T01861055  RH  019%=      5-min Rain = 0
KLA1 112150Z 05007G12KT 18/M05 A3018 RMK A01 T01831054  RH  019%=      5-min Rain = 0
KLA1 112151Z 05009KT 18/M05 A3018 RMK A01 T01811054  RH  020%=      5-min Rain = 0
KLA1 112152Z 05011KT 18/M05 A3018 RMK A01 T01811052  RH  020%=      5-min Rain = 0
KLA1 112153Z 05012KT 18/M05 A3018 RMK A01 T01811053  RH  020%=      5-min Rain = 0
KLA1 112154Z 04013KT 18/M05 A3018 RMK A01 T01801053  RH  020%=      5-min Rain = 0
KLA1 112155Z 03009KT 18/M05 A3018 RMK A01 T01791053  RH  020%=      5-min Rain = 0
KLA1 112156Z 04007KT 18/M05 A3018 RMK A01 T01791052  RH  020%=      5-min Rain = 0
KLA1 112157Z 03011G16KT 18/M05 A3018 RMK A01 T01801050  RH  020%=      5-min Rain = 0
KLA1 112158Z 36008KT 18/M05 A3018 RMK A01 T01801047  RH  021%=      5-min Rain = 0
KLA1 112159Z 03011KT 18/M05 A3019 RMK A01 T01801046  RH  021%=      5-min Rain = 0
KLA1 112200Z 02009KT 18/M05 A3019 RMK A01 T01801047  RH  021%=      5-min Rain = 0
KLA1 112201Z 03012KT 18/M05 A3018 RMK A01 T01781049  RH  021%=      5-min Rain = 0
KLA1 112202Z 04009G15KT 18/M05 A3018 RMK A01 T01761048  RH  021%=      5-min Rain = 0
KLA1 112203Z 02011KT 18/M05 A3018 RMK A01 T01761048  RH  021%=      5-min Rain = 0
KLA1 112204Z 02012KT 18/M05 A3019 RMK A01 T01761047  RH  021%=      5-min Rain = 0
KLA1 112205Z 01012KT 18/M05 A3019 RMK A01 T01761047  RH  021%=      5-min Rain = 0
KLA1 112206Z 36010G15KT 17/M05 A3019 RMK A01 T01741047  RH  022%=      5-min Rain = 0
KLA1 112207Z 00012KT 17/M05 A3019 RMK A01 T01741046  RH  022%=      5-min Rain = 0
KLA1 112208Z 00009KT 18/M05 A3019 RMK A01 T01761045  RH  022%=      5-min Rain = 0
KLA1 112209Z 00013KT 18/M05 A3019 RMK A01 T01751045  RH  022%=      5-min Rain = 0
KLA1 112210Z 01011KT 18/M05 A3019 RMK A01 T01751045  RH  022%=      5-min Rain = 0
KLA1 112211Z 36012KT 18/M04 A3019 RMK A01 T01761044  RH  022%=      5-min Rain = 0
KLA1 112212Z 36010KT 18/M04 A3019 RMK A01 T01771044  RH  022%=      5-min Rain = 0
KLA1 112213Z 36012KT 18/M04 A3018 RMK A01 T01791043  RH  022%=      5-min Rain = 0
KLA1 112214Z 36011KT 18/M04 A3018 RMK A01 T01781044  RH  022%=      5-min Rain = 0
KLA1 112215Z 00012KT 18/M05 A3018 RMK A01 T01751045  RH  022%=      5-min Rain = 0
KLA1 112216Z 03010G17KT 17/M04 A3018 RMK A01 T01741044  RH  022%=      5-min Rain = 0
KLA1 112217Z 03011G16KT 17/M04 A3018 RMK A01 T01741044  RH  022%=      5-min Rain = 0
KLA1 112218Z 01011G16KT 17/M04 A3018 RMK A01 T01731044  RH  022%=      5-min Rain = 0
KLA1 112219Z 01012KT 17/M04 A3018 RMK A01 T01741044  RH  022%=      5-min Rain = 0
KLA1 112220Z 01011KT 18/M04 A3019 RMK A01 T01751043  RH  022%=      5-min Rain = 0
KLA1 112221Z 01014KT 18/M04 A3019 RMK A01 T01751042  RH  022%=      5-min Rain = 0
KLA1 112222Z 01013KT 17/M04 A3019 RMK A01 T01731044  RH  022%=      5-min Rain = 0
KLA1 112223Z 02014KT 17/M04 A3019 RMK A01 T01721043  RH  023%=      5-min Rain = 0
KLA1 112224Z 01015KT 17/M04 A3019 RMK A01 T01731042  RH  023%=      5-min Rain = 0
KLA1 112225Z 02012KT 17/M04 A3019 RMK A01 T01721041  RH  023%=      5-min Rain = 0
KLA1 112226Z 02013KT 17/M04 A3019 RMK A01 T01711041  RH  023%=      5-min Rain = 0
KLA1 112227Z 01012KT 17/M04 A3019 RMK A01 T01711043  RH  023%=      5-min Rain = 0
KLA1 112228Z 03007KT 17/M04 A3019 RMK A01 T01721042  RH  023%=      5-min Rain = 0
KLA1 112229Z 05009KT 17/M04 A3019 RMK A01 T01731043  RH  023%=      5-min Rain = 0
KLA1 112230Z 02010KT 17/M04 A3019 RMK A01 T01731044  RH  022%=      5-min Rain = 0
KLA1 112231Z 00011KT 17/M04 A3019 RMK A01 T01731043  RH  022%=      5-min Rain = 0
KLA1 112232Z 00010G16KT 17/M04 A3019 RMK A01 T01721043  RH  023%=      5-min Rain = 0
KLA1 112233Z 01011KT 17/M04 A3019 RMK A01 T01721044  RH  023%=      5-min Rain = 0
KLA1 112234Z 01011KT 17/M05 A3019 RMK A01 T01721045  RH  022%=      5-min Rain = 0
KLA1 112235Z 01008G15KT 17/M04 A3019 RMK A01 T01721044  RH  022%=      5-min Rain = 0
KLA1 112236Z 01014KT 17/M05 A3019 RMK A01 T01731046  RH  022%=      5-min Rain = 0
KLA1 112237Z 00012KT 17/M05 A3019 RMK A01 T01711047  RH  022%=      5-min Rain = 0
KLA1 112238Z 00011KT 17/M05 A3019 RMK A01 T01701048  RH  022%=      5-min Rain = 0
KLA1 112239Z 01010KT 17/M05 A3019 RMK A01 T01701048  RH  022%=      5-min Rain = 0
KLA1 112240Z 02010KT 17/M05 A3019 RMK A01 T01701048  RH  022%=      5-min Rain = 0
KLA1 112241Z 05010KT 17/M05 A3019 RMK A01 T01701048  RH  022%=      5-min Rain = 0
KLA1 112242Z 04009KT 17/M05 A3019 RMK A01 T01701049  RH  022%=      5-min Rain = 0
KLA1 112243Z 02010KT 17/M05 A3019 RMK A01 T01701049  RH  022%=      5-min Rain = 0
KLA1 112244Z 04007KT 17/M05 A3019 RMK A01 T01701050  RH  022%=      5-min Rain = 0
KLA1 112245Z 01007KT 17/M05 A3018 RMK A01 T01701049  RH  022%=      5-min Rain = 0
KLA1 112246Z 05006KT 17/M05 A3019 RMK A01 T01721048  RH  022%=      5-min Rain = 0
KLA1 112247Z 04006KT 17/M05 A3018 RMK A01 T01731049  RH  021%=      5-min Rain = 0
KLA1 112248Z 02005KT 17/M05 A3019 RMK A01 T01731049  RH  021%=      5-min Rain = 0
KLA1 112249Z 36005KT 17/M05 A3019 RMK A01 T01741049  RH  021%=      5-min Rain = 0
KLA1 112250Z 02004KT 17/M05 A3019 RMK A01 T01741050  RH  021%=      5-min Rain = 0
KLA1 112251Z 01004KT 18/M05 A3019 RMK A01 T01751049  RH  021%=      5-min Rain = 0
KLA1 112252Z 01011KT 18/M05 A3019 RMK A01 T01781048  RH  021%=      5-min Rain = 0
KLA1 112253Z 02007KT 18/M05 A3019 RMK A01 T01781048  RH  021%=      5-min Rain = 0
KLA1 112254Z 03008KT 18/M05 A3019 RMK A01 T01791048  RH  021%=      5-min Rain = 0
KLA1 112255Z 00006KT 18/M05 A3019 RMK A01 T01791049  RH  021%=      5-min Rain = 0
KLA1 112256Z 00007KT 18/M05 A3019 RMK A01 T01801048  RH  021%=      5-min Rain = 0
KLA1 112257Z 01009KT 18/M05 A3019 RMK A01 T01811049  RH  020%=      5-min Rain = 0
KLA1 112258Z 02011KT 18/M05 A3019 RMK A01 T01821049  RH  020%=      5-min Rain = 0
KLA1 112259Z 04008KT 18/M05 A3019 RMK A01 T01821049  RH  020%=      5-min Rain = 0
KLA1 112300Z 03008KT 18/M05 A3019 RMK A01 T01811049  RH  021%=      5-min Rain = 0
KLA1 112301Z 03009KT 18/M05 A3019 RMK A01 T01801048  RH  021%=      5-min Rain = 0
KLA1 112302Z 01011KT 18/M05 A3019 RMK A01 T01801049  RH  021%=      5-min Rain = 0
KLA1 112303Z 00011KT 18/M05 A3019 RMK A01 T01791050  RH  021%=      5-min Rain = 0
KLA1 112304Z 01014KT 18/M05 A3019 RMK A01 T01791051  RH  021%=      5-min Rain = 0
KLA1 112305Z 01012KT 18/M05 A3019 RMK A01 T01781051  RH  020%=      5-min Rain = 0
KLA1 112306Z 01010KT 18/M05 A3019 RMK A01 T01781051  RH  021%=      5-min Rain = 0
KLA1 112307Z 01009G14KT 18/M05 A3019 RMK A01 T01781051  RH  020%=      5-min Rain = 0
KLA1 112308Z 01010KT 18/M05 A3019 RMK A01 T01781052  RH  020%=      5-min Rain = 0
KLA1 112309Z 01008KT 18/M05 A3019 RMK A01 T01761053  RH  020%=      5-min Rain = 0
KLA1 112310Z 04010KT 18/M05 A3019 RMK A01 T01761052  RH  021%=      5-min Rain = 0
KLA1 112311Z 03010KT 18/M05 A3019 RMK A01 T01751052  RH  021%=      5-min Rain = 0
KLA1 112312Z 03008G13KT 17/M05 A3019 RMK A01 T01741052  RH  021%=      5-min Rain = 0
KLA1 112313Z 02008KT 17/M05 A3019 RMK A01 T01731052  RH  021%=      5-min Rain = 0
KLA1 112314Z 02006KT 17/M05 A3019 RMK A01 T01731052  RH  021%=      5-min Rain = 0
KLA1 112315Z 03007KT 17/M05 A3019 RMK A01 T01741052  RH  021%=      5-min Rain = 0
KLA1 112316Z 03007KT 17/M05 A3019 RMK A01 T01741053  RH  021%=      5-min Rain = 0
KLA1 112317Z 03006KT 17/M05 A3019 RMK A01 T01741052  RH  021%=      5-min Rain = 0
KLA1 112318Z 05010KT 18/M05 A3019 RMK A01 T01751052  RH  021%=      5-min Rain = 0
KLA1 112319Z 04010KT 17/M05 A3019 RMK A01 T01741052  RH  021%=      5-min Rain = 0
KLA1 112320Z 03011KT 17/M05 A302 RMK A01 T01731054  RH  021%=      5-min Rain = 0
KLA1 112321Z 02007KT 17/M06 A3019 RMK A01 T01731055  RH  021%=      5-min Rain = 0
KLA1 112322Z 02007KT 17/M06 A3019 RMK A01 T01731055  RH  021%=      5-min Rain = 0
KLA1 112323Z 02009KT 17/M06 A3019 RMK A01 T01731056  RH  020%=      5-min Rain = 0
KLA1 112324Z 01009KT 17/M06 A3019 RMK A01 T01731058  RH  020%=      5-min Rain = 0
KLA1 112325Z 02009G16KT 17/M06 A3019 RMK A01 T01731059  RH  020%=      5-min Rain = 0
KLA1 112326Z 02009G14KT 17/M06 A302 RMK A01 T01731060  RH  020%=      5-min Rain = 0
KLA1 112327Z 02008KT 17/M06 A302 RMK A01 T01721060  RH  020%=      5-min Rain = 0
KLA1 112328Z 02010KT 17/M06 A302 RMK A01 T01731059  RH  020%=      5-min Rain = 0
KLA1 112329Z 03006KT 17/M06 A302 RMK A01 T01731060  RH  020%=      5-min Rain = 0
KLA1 112330Z 02005KT 17/M06 A302 RMK A01 T01731059  RH  020%=      5-min Rain = 0
KLA1 112331Z 02005KT 17/M06 A302 RMK A01 T01741059  RH  020%=      5-min Rain = 0
KLA1 112332Z 01008KT 17/M06 A302 RMK A01 T01731060  RH  020%=      5-min Rain = 0
KLA1 112333Z 01010KT 17/M06 A302 RMK A01 T01731060  RH  020%=      5-min Rain = 0
KLA1 112334Z 01009KT 17/M06 A302 RMK A01 T01721060  RH  020%=      5-min Rain = 0
KLA1 112335Z 03010KT 17/M06 A302 RMK A01 T01711059  RH  020%=      5-min Rain = 0
KLA1 112336Z 02011KT 17/M06 A302 RMK A01 T01711058  RH  020%=      5-min Rain = 0
KLA1 112337Z 01011KT 17/M06 A302 RMK A01 T01701057  RH  021%=      5-min Rain = 0
KLA1 112338Z 02012KT 17/M05 A302 RMK A01 T01701053  RH  021%=      5-min Rain = 0
KLA1 112339Z 03012KT 17/M05 A302 RMK A01 T01691052  RH  022%=      5-min Rain = 0
KLA1 112340Z 04007KT 17/M05 A302 RMK A01 T01681051  RH  022%=      5-min Rain = 0
KLA1 112341Z 04010KT 17/M05 A302 RMK A01 T01681050  RH  022%=      5-min Rain = 0
KLA1 112342Z 02008KT 17/M05 A302 RMK A01 T01681049  RH  022%=      5-min Rain = 0
KLA1 112343Z 02008KT 17/M05 A302 RMK A01 T01691048  RH  022%=      5-min Rain = 0
KLA1 112344Z 01007KT 17/M05 A302 RMK A01 T01691047  RH  022%=      5-min Rain = 0
KLA1 112345Z 36010KT 17/M05 A302 RMK A01 T01691047  RH  022%=      5-min Rain = 0
KLA1 112346Z 01009KT 17/M05 A302 RMK A01 T01691046  RH  023%=      5-min Rain = 0
KLA1 112347Z 01009KT 17/M05 A302 RMK A01 T01681046  RH  023%=      5-min Rain = 0
KLA1 112348Z 35007KT 17/M05 A302 RMK A01 T01671046  RH  023%=      5-min Rain = 0
KLA1 112349Z 35007KT 17/M05 A302 RMK A01 T01671046  RH  023%=      5-min Rain = 0
KLA1 112350Z 34008KT 17/M05 A302 RMK A01 T01671046  RH  023%=      5-min Rain = 0
KLA1 112351Z 35007KT 17/M05 A3021 RMK A01 T01661046  RH  023%=      5-min Rain = 0
KLA1 112352Z 02006KT 17/M05 A3021 RMK A01 T01661046  RH  023%=      5-min Rain = 0
KLA1 112353Z 00008KT 17/M05 A3021 RMK A01 T01661046  RH  023%=      5-min Rain = 0
KLA1 112354Z 36009KT 17/M05 A3021 RMK A01 T01661047  RH  023%=      5-min Rain = 0
KLA1 112355Z 02010KT 17/M05 A3021 RMK A01 T01661047  RH  023%=      5-min Rain = 0
KLA1 112356Z 01010KT 17/M05 A3021 RMK A01 T01661047  RH  023%=      5-min Rain = 0
KLA1 112357Z 01011KT 17/M05 A3021 RMK A01 T01661048  RH  023%=      5-min Rain = 0
KLA1 112358Z 02011KT 17/M05 A3021 RMK A01 T01651049  RH  023%=      5-min Rain = 0
KLA1 112359Z 01011KT 16/M05 A3021 RMK A01 T01631050  RH  023%=      5-min Rain = 0
KLA1 120000Z 01007KT 16/M05 A3021 RMK A01 T01631050  RH  023%=      5-min Rain = 0
KLA1 120001Z 02006KT 16/M05 A3021 RMK A01 T01621049  RH  023%=      5-min Rain = 0
KLA1 120002Z 02008KT 16/M05 A3021 RMK A01 T01621049  RH  023%=      5-min Rain = 0
KLA1 120003Z 01009KT 16/M05 A3021 RMK A01 T01621050  RH  023%=      5-min Rain = 0
KLA1 120004Z 01008KT 16/M05 A3022 RMK A01 T01621051  RH  023%=      5-min Rain = 0
KLA1 120005Z 03010KT 16/M05 A3022 RMK A01 T01621051  RH  023%=      5-min Rain = 0
KLA1 120006Z 02011KT 16/M05 A3022 RMK A01 T01611053  RH  023%=      5-min Rain = 0
KLA1 120007Z 03011KT 16/M05 A3022 RMK A01 T01611053  RH  023%=      5-min Rain = 0
KLA1 120008Z 03009G14KT 16/M05 A3021 RMK A01 T01601054  RH  022%=      5-min Rain = 0
KLA1 120009Z 03009KT 16/M05 A3021 RMK A01 T01601054  RH  022%=      5-min Rain = 0
KLA1 120010Z 02006KT 16/M05 A3021 RMK A01 T01601054  RH  022%=      5-min Rain = 0
KLA1 120011Z 04006KT 16/M05 A3021 RMK A01 T01601054  RH  023%=      5-min Rain = 0
KLA1 120012Z 02005KT 16/M05 A3021 RMK A01 T01601054  RH  023%=      5-min Rain = 0
KLA1 120013Z 02004KT 16/M05 A3021 RMK A01 T01601054  RH  023%=      5-min Rain = 0
KLA1 120014Z 02007KT 16/M05 A3021 RMK A01 T01591054  RH  023%=      5-min Rain = 0
KLA1 120015Z 02005KT 16/M06 A3021 RMK A01 T01591055  RH  022%=      5-min Rain = 0
KLA1 120016Z 02008KT 16/M06 A3021 RMK A01 T01591056  RH  022%=      5-min Rain = 0
KLA1 120017Z 03009KT 16/M06 A3021 RMK A01 T01581057  RH  022%=      5-min Rain = 0
KLA1 120018Z 02011KT 16/M06 A3021 RMK A01 T01581059  RH  022%=      5-min Rain = 0
KLA1 120019Z 02009KT 16/M06 A3022 RMK A01 T01581060  RH  022%=      5-min Rain = 0
KLA1 120020Z 01011KT 16/M06 A3022 RMK A01 T01571061  RH  022%=      5-min Rain = 0
KLA1 120021Z 02011KT 16/M06 A3022 RMK A01 T01571064  RH  021%=      5-min Rain = 0
KLA1 120022Z 04009KT 16/M07 A3022 RMK A01 T01571065  RH  021%=      5-min Rain = 0
KLA1 120023Z 02008KT 16/M06 A3022 RMK A01 T01571064  RH  021%=      5-min Rain = 0
KLA1 120024Z 01009KT 16/M07 A3022 RMK A01 T01561065  RH  021%=      5-min Rain = 0
KLA1 120025Z 35008KT 16/M07 A3022 RMK A01 T01571066  RH  021%=      5-min Rain = 0
KLA1 120026Z 02009KT 16/M07 A3022 RMK A01 T01561067  RH  021%=      5-min Rain = 0
KLA1 120027Z 01012KT 16/M07 A3023 RMK A01 T01561069  RH  021%=      5-min Rain = 0
KLA1 120028Z 01010KT 16/M07 A3023 RMK A01 T01551070  RH  020%=      5-min Rain = 0
KLA1 120029Z 01009KT 16/M07 A3023 RMK A01 T01551070  RH  020%=      5-min Rain = 0
KLA1 120030Z 01008KT 16/M07 A3023 RMK A01 T01551071  RH  020%=      5-min Rain = 0
KLA1 120031Z 01009KT 15/M07 A3023 RMK A01 T01541071  RH  020%=      5-min Rain = 0
KLA1 120032Z 01008KT 15/M07 A3023 RMK A01 T01541072  RH  020%=      5-min Rain = 0
KLA1 120033Z 02010KT 15/M07 A3023 RMK A01 T01541071  RH  020%=      5-min Rain = 0
KLA1 120034Z 02009KT 15/M07 A3023 RMK A01 T01541071  RH  021%=      5-min Rain = 0
KLA1 120035Z 01009KT 15/M07 A3023 RMK A01 T01541071  RH  021%=      5-min Rain = 0
KLA1 120036Z 01008KT 15/M07 A3023 RMK A01 T01541071  RH  021%=      5-min Rain = 0
KLA1 120037Z 01009KT 15/M07 A3023 RMK A01 T01531071  RH  021%=      5-min Rain = 0
KLA1 120038Z 03008KT 15/M07 A3023 RMK A01 T01531070  RH  021%=      5-min Rain = 0
KLA1 120039Z 03007KT 15/M07 A3023 RMK A01 T01531070  RH  021%=      5-min Rain = 0
KLA1 120040Z 00007KT 15/M07 A3023 RMK A01 T01531070  RH  021%=      5-min Rain = 0
KLA1 120041Z 01009KT 15/M07 A3023 RMK A01 T01531069  RH  021%=      5-min Rain = 0
KLA1 120042Z 01008KT 15/M07 A3023 RMK A01 T01521069  RH  021%=      5-min Rain = 0
KLA1 120043Z 02006KT 15/M07 A3023 RMK A01 T01521068  RH  021%=      5-min Rain = 0
KLA1 120044Z 02006KT 15/M07 A3023 RMK A01 T01511068  RH  021%=      5-min Rain = 0
KLA1 120045Z 02005KT 15/M07 A3023 RMK A01 T01511068  RH  021%=      5-min Rain = 0
KLA1 120046Z 03005KT 15/M07 A3023 RMK A01 T01511068  RH  021%=      5-min Rain = 0
KLA1 120047Z 03006KT 15/M07 A3023 RMK A01 T01511067  RH  022%=      5-min Rain = 0
KLA1 120048Z 02006KT 15/M07 A3023 RMK A01 T01501067  RH  022%=      5-min Rain = 0
KLA1 120049Z 01006KT 15/M07 A3023 RMK A01 T01501068  RH  022%=      5-min Rain = 0
KLA1 120050Z 00005KT 15/M07 A3023 RMK A01 T01501068  RH  022%=      5-min Rain = 0
KLA1 120051Z 01006KT 15/M07 A3023 RMK A01 T01501068  RH  022%=      5-min Rain = 0
KLA1 120052Z 02004KT 15/M07 A3023 RMK A01 T01491069  RH  022%=      5-min Rain = 0
KLA1 120053Z 01003KT 15/M07 A3023 RMK A01 T01491070  RH  022%=      5-min Rain = 0
KLA1 120054Z 01004KT 15/M07 A3023 RMK A01 T01481070  RH  022%=      5-min Rain = 0
KLA1 120055Z 02005KT 15/M07 A3023 RMK A01 T01481071  RH  021%=      5-min Rain = 0
KLA1 120056Z 02006KT 15/M07 A3024 RMK A01 T01481071  RH  021%=      5-min Rain = 0
KLA1 120057Z 01006KT 15/M07 A3024 RMK A01 T01481071  RH  021%=      5-min Rain = 0
KLA1 120058Z 02006KT 15/M07 A3024 RMK A01 T01481072  RH  021%=      5-min Rain = 0
KLA1 120059Z 01007G12KT 15/M07 A3024 RMK A01 T01481073  RH  021%=      5-min Rain = 0
KLA1 120100Z 02006G12KT 15/M08 A3024 RMK A01 T01471075  RH  021%=      5-min Rain = 0
KLA1 120101Z 02009KT 15/M08 A3024 RMK A01 T01471075  RH  021%=      5-min Rain = 0
KLA1 120102Z 02006KT 15/M08 A3024 RMK A01 T01471076  RH  021%=      5-min Rain = 0
KLA1 120103Z 01007KT 15/M08 A3025 RMK A01 T01471076  RH  021%=      5-min Rain = 0
KLA1 120104Z 01008KT 15/M08 A3025 RMK A01 T01461077  RH  021%=      5-min Rain = 0
KLA1 120105Z 02007KT 15/M08 A3025 RMK A01 T01461077  RH  021%=      5-min Rain = 0
KLA1 120106Z 02005KT 15/M08 A3025 RMK A01 T01461077  RH  021%=      5-min Rain = 0
KLA1 120107Z 02005KT 15/M08 A3025 RMK A01 T01451077  RH  021%=      5-min Rain = 0
KLA1 120108Z 01005KT 15/M08 A3024 RMK A01 T01451077  RH  021%=      5-min Rain = 0
KLA1 120109Z 00006KT 14/M08 A3024 RMK A01 T01441078  RH  021%=      5-min Rain = 0
KLA1 120110Z 02007KT 14/M08 A3024 RMK A01 T01441079  RH  021%=      5-min Rain = 0
KLA1 120111Z 02006KT 14/M08 A3024 RMK A01 T01441082  RH  020%=      5-min Rain = 0
KLA1 120112Z 01007KT 14/M08 A3024 RMK A01 T01441084  RH  020%=      5-min Rain = 0
KLA1 120113Z 01008KT 14/M09 A3024 RMK A01 T01431086  RH  020%=      5-min Rain = 0
KLA1 120114Z 02009KT 14/M09 A3024 RMK A01 T01431087  RH  019%=      5-min Rain = 0
KLA1 120115Z 01007KT 14/M09 A3024 RMK A01 T01431089  RH  019%=      5-min Rain = 0
KLA1 120116Z 01009KT 14/M09 A3025 RMK A01 T01431091  RH  019%=      5-min Rain = 0
KLA1 120117Z 01005KT 14/M09 A3025 RMK A01 T01431092  RH  019%=      5-min Rain = 0
KLA1 120118Z 02006KT 14/M09 A3025 RMK A01 T01431092  RH  019%=      5-min Rain = 0
KLA1 120119Z 02007KT 14/M09 A3025 RMK A01 T01431092  RH  019%=      5-min Rain = 0
KLA1 120120Z 01007KT 14/M09 A3025 RMK A01 T01431092  RH  019%=      5-min Rain = 0
KLA1 120121Z 01006KT 14/M09 A3025 RMK A01 T01431092  RH  019%=      5-min Rain = 0
KLA1 120122Z 01006KT 14/M09 A3025 RMK A01 T01431093  RH  019%=      5-min Rain = 0
KLA1 120123Z 01008KT 14/M09 A3025 RMK A01 T01431093  RH  019%=      5-min Rain = 0
KLA1 120124Z 01009KT 14/M09 A3025 RMK A01 T01431093  RH  019%=      5-min Rain = 0
KLA1 120125Z 03006KT 14/M09 A3025 RMK A01 T01431094  RH  018%=      5-min Rain = 0
KLA1 120126Z 01007KT 14/M09 A3025 RMK A01 T01431093  RH  019%=      5-min Rain = 0
KLA1 120127Z 03004KT 14/M09 A3025 RMK A01 T01431093  RH  019%=      5-min Rain = 0
KLA1 120128Z 01006KT 14/M09 A3025 RMK A01 T01421094  RH  019%=      5-min Rain = 0
KLA1 120129Z 01005KT 14/M09 A3025 RMK A01 T01421094  RH  019%=      5-min Rain = 0
KLA1 120130Z 03004KT 14/M09 A3025 RMK A01 T01411094  RH  019%=      5-min Rain = 0
KLA1 120131Z 00005KT 14/M09 A3025 RMK A01 T01411094  RH  019%=      5-min Rain = 0
KLA1 120132Z 02008KT 14/M09 A3025 RMK A01 T01411094  RH  019%=      5-min Rain = 0
KLA1 120133Z 03004KT 14/M09 A3025 RMK A01 T01411094  RH  019%=      5-min Rain = 0
KLA1 120134Z 03003KT 14/M09 A3025 RMK A01 T01411094  RH  019%=      5-min Rain = 0
KLA1 120135Z 02003KT 14/M09 A3025 RMK A01 T01411094  RH  019%=      5-min Rain = 0
KLA1 120136Z 02004KT 14/M09 A3025 RMK A01 T01411094  RH  019%=      5-min Rain = 0
KLA1 120137Z 04002KT 14/M09 A3025 RMK A01 T01411093  RH  019%=      5-min Rain = 0
KLA1 120138Z 05002KT 14/M09 A3025 RMK A01 T01401093  RH  019%=      5-min Rain = 0
KLA1 120139Z 05003KT 14/M09 A3025 RMK A01 T01391093  RH  019%=      5-min Rain = 0
KLA1 120140Z 04003KT 14/M09 A3025 RMK A01 T01381092  RH  019%=      5-min Rain = 0
KLA1 120141Z 04003KT 14/M09 A3025 RMK A01 T01381092  RH  019%=      5-min Rain = 0
KLA1 120142Z 03004KT 14/M09 A3025 RMK A01 T01381092  RH  019%=      5-min Rain = 0
KLA1 120143Z 03003KT 14/M09 A3025 RMK A01 T01381093  RH  019%=      5-min Rain = 0
KLA1 120144Z 03003KT 14/M09 A3025 RMK A01 T01381093  RH  019%=      5-min Rain = 0
KLA1 120145Z 04002KT 14/M09 A3025 RMK A01 T01381093  RH  019%=      5-min Rain = 0
KLA1 120146Z 03003KT 14/M09 A3025 RMK A01 T01381092  RH  019%=      5-min Rain = 0
KLA1 120147Z 03003KT 14/M09 A3025 RMK A01 T01381092  RH  019%=      5-min Rain = 0
KLA1 120148Z 01001KT 14/M09 A3026 RMK A01 T01381092  RH  019%=      5-min Rain = 0
KLA1 120149Z 02003KT 14/M09 A3026 RMK A01 T01371092  RH  019%=      5-min Rain = 0
KLA1 120150Z 00002KT 14/M09 A3026 RMK A01 T01371092  RH  019%=      5-min Rain = 0
KLA1 120151Z 04001KT 14/M09 A3026 RMK A01 T01371092  RH  019%=      5-min Rain = 0
KLA1 120152Z 29001KT 14/M09 A3026 RMK A01 T01371093  RH  019%=      5-min Rain = 0
KLA1 120153Z 33001KT 14/M09 A3026 RMK A01 T01371093  RH  019%=      5-min Rain = 0
KLA1 120154Z 35000KT 14/M09 A3026 RMK A01 T01361092  RH  020%=      5-min Rain = 0
KLA1 120155Z 34001KT 14/M09 A3026 RMK A01 T01361091  RH  020%=      5-min Rain = 0
KLA1 120156Z 01001KT 14/M09 A3026 RMK A01 T01351092  RH  020%=      5-min Rain = 0
KLA1 120157Z 04002KT 13/M09 A3026 RMK A01 T01341092  RH  020%=      5-min Rain = 0
KLA1 120158Z 05001KT 13/M09 A3026 RMK A01 T01341092  RH  020%=      5-min Rain = 0
KLA1 120159Z 00000KT 13/M09 A3026 RMK A01 T01341091  RH  020%=      5-min Rain = 0
KLA1 120200Z 00000KT 13/M09 A3026 RMK A01 T01341092  RH  020%=      5-min Rain = 0
KLA1 120201Z 01000KT 13/M09 A3027 RMK A01 T01341092  RH  020%=      5-min Rain = 0
KLA1 120202Z 01001KT 13/M09 A3027 RMK A01 T01341092  RH  020%=      5-min Rain = 0
KLA1 120203Z 02003KT 13/M09 A3027 RMK A01 T01341092  RH  020%=      5-min Rain = 0
KLA1 120204Z 02003KT 13/M09 A3027 RMK A01 T01341092  RH  020%=      5-min Rain = 0
KLA1 120205Z 02003KT 13/M09 A3027 RMK A01 T01341090  RH  020%=      5-min Rain = 0
KLA1 120206Z 02003KT 13/M09 A3027 RMK A01 T01331088  RH  021%=      5-min Rain = 0
KLA1 120207Z 02005KT 13/M09 A3027 RMK A01 T01331088  RH  021%=      5-min Rain = 0
KLA1 120208Z 03005KT 13/M09 A3027 RMK A01 T01331088  RH  021%=      5-min Rain = 0
KLA1 120209Z 36002KT 13/M09 A3027 RMK A01 T01341088  RH  020%=      5-min Rain = 0
KLA1 120210Z 35004KT 14/M09 A3027 RMK A01 T01351088  RH  020%=      5-min Rain = 0
KLA1 120211Z 34003KT 14/M09 A3028 RMK A01 T01351088  RH  020%=      5-min Rain = 0
KLA1 120212Z 34002KT 14/M09 A3028 RMK A01 T01351087  RH  020%=      5-min Rain = 0
KLA1 120213Z 35003KT 14/M09 A3028 RMK A01 T01351089  RH  020%=      5-min Rain = 0
KLA1 120214Z 01004KT 14/M09 A3028 RMK A01 T01351089  RH  020%=      5-min Rain = 0
KLA1 120215Z 36006KT 14/M09 A3028 RMK A01 T01351087  RH  021%=      5-min Rain = 0
KLA1 120216Z 34005KT 14/M09 A3028 RMK A01 T01351087  RH  021%=      5-min Rain = 0
KLA1 120217Z 34003KT 14/M09 A3028 RMK A01 T01351089  RH  020%=      5-min Rain = 0
KLA1 120218Z 00004KT 14/M09 A3028 RMK A01 T01351089  RH  020%=      5-min Rain = 0
KLA1 120219Z 00005KT 14/M09 A3028 RMK A01 T01361087  RH  020%=      5-min Rain = 0
KLA1 120220Z 01007KT 14/M09 A3028 RMK A01 T01361087  RH  020%=      5-min Rain = 0
KLA1 120221Z 01007KT 14/M09 A3028 RMK A01 T01361087  RH  020%=      5-min Rain = 0
KLA1 120222Z 02009KT 14/M09 A3028 RMK A01 T01361087  RH  020%=      5-min Rain = 0
KLA1 120223Z 02009KT 14/M09 A3028 RMK A01 T01371087  RH  020%=      5-min Rain = 0
KLA1 120224Z 01006KT 14/M09 A3028 RMK A01 T01371087  RH  020%=      5-min Rain = 0
KLA1 120225Z 01006KT 14/M09 A3028 RMK A01 T01371087  RH  020%=      5-min Rain = 0
KLA1 120226Z 03006KT 14/M09 A3028 RMK A01 T01371087  RH  020%=      5-min Rain = 0
KLA1 120227Z 02004KT 14/M09 A3028 RMK A01 T01361087  RH  020%=      5-min Rain = 0
KLA1 120228Z 03004KT 14/M09 A3028 RMK A01 T01361087  RH  020%=      5-min Rain = 0
KLA1 120229Z 03001KT 14/M09 A3028 RMK A01 T01351086  RH  021%=      5-min Rain = 0
KLA1 120230Z 03003KT 14/M09 A3028 RMK A01 T01351087  RH  021%=      5-min Rain = 0
KLA1 120231Z 00004KT 13/M09 A3028 RMK A01 T01341087  RH  021%=      5-min Rain = 0
KLA1 120232Z 03003KT 13/M09 A3028 RMK A01 T01341087  RH  021%=      5-min Rain = 0
KLA1 120233Z 03004KT 13/M09 A3028 RMK A01 T01341086  RH  021%=      5-min Rain = 0
KLA1 120234Z 02005KT 13/M09 A3028 RMK A01 T01341086  RH  021%=      5-min Rain = 0
KLA1 120235Z 04003KT 13/M09 A3028 RMK A01 T01341087  RH  021%=      5-min Rain = 0
KLA1 120236Z 02004KT 13/M09 A3028 RMK A01 T01341087  RH  021%=      5-min Rain = 0
KLA1 120237Z 03006KT 13/M09 A3028 RMK A01 T01341086  RH  021%=      5-min Rain = 0
KLA1 120238Z 03002KT 13/M09 A3028 RMK A01 T01341086  RH  021%=      5-min Rain = 0
KLA1 120239Z 03002KT 13/M09 A3028 RMK A01 T01341085  RH  021%=      5-min Rain = 0
KLA1 120240Z 03002KT 13/M09 A3028 RMK A01 T01331085  RH  021%=      5-min Rain = 0
KLA1 120241Z 03002KT 13/M09 A3028 RMK A01 T01331085  RH  021%=      5-min Rain = 0
KLA1 120242Z 05002KT 13/M09 A3028 RMK A01 T01331086  RH  021%=      5-min Rain = 0
KLA1 120243Z 04003KT 13/M09 A3028 RMK A01 T01331086  RH  021%=      5-min Rain = 0
KLA1 120244Z 02002KT 13/M09 A3028 RMK A01 T01331086  RH  021%=      5-min Rain = 0
KLA1 120245Z 35000KT 13/M09 A3028 RMK A01 T01331085  RH  021%=      5-min Rain = 0
KLA1 120246Z 03001KT 13/M09 A3028 RMK A01 T01331085  RH  021%=      5-min Rain = 0
KLA1 120247Z 04002KT 13/M09 A3028 RMK A01 T01321085  RH  021%=      5-min Rain = 0
KLA1 120248Z 01002KT 13/M09 A3028 RMK A01 T01321085  RH  021%=      5-min Rain = 0
KLA1 120249Z 02002KT 13/M09 A3028 RMK A01 T01321086  RH  021%=      5-min Rain = 0
KLA1 120250Z 03003KT 13/M09 A3028 RMK A01 T01321085  RH  021%=      5-min Rain = 0
KLA1 120251Z 00003KT 13/M09 A3028 RMK A01 T01311086  RH  021%=      5-min Rain = 0
KLA1 120252Z 04002KT 13/M09 A3028 RMK A01 T01311086  RH  021%=      5-min Rain = 0
KLA1 120253Z 05000KT 13/M09 A3028 RMK A01 T01311086  RH  021%=      5-min Rain = 0
KLA1 120254Z 05000KT 13/M09 A3028 RMK A01 T01311085  RH  021%=      5-min Rain = 0
KLA1 120255Z 00000KT 13/M09 A3029 RMK A01 T01311085  RH  021%=      5-min Rain = 0
KLA1 120256Z 00000KT 13/M09 A3029 RMK A01 T01301085  RH  021%=      5-min Rain = 0
KLA1 120257Z 28000KT 13/M08 A3029 RMK A01 T01291084  RH  022%=      5-min Rain = 0
KLA1 120258Z 30002KT 13/M08 A3029 RMK A01 T01281084  RH  022%=      5-min Rain = 0
KLA1 120259Z 29003KT 13/M09 A3029 RMK A01 T01271085  RH  022%=      5-min Rain = 0
KLA1 120300Z 28003KT 13/M09 A3029 RMK A01 T01271085  RH  022%=      5-min Rain = 0
KLA1 120301Z 29003KT 13/M08 A3029 RMK A01 T01251084  RH  022%=      5-min Rain = 0
KLA1 120302Z 28003KT 12/M09 A3029 RMK A01 T01231085  RH  023%=      5-min Rain = 0
KLA1 120303Z 27003KT 12/M09 A3029 RMK A01 T01231085  RH  023%=      5-min Rain = 0
KLA1 120304Z 28002KT 12/M08 A3029 RMK A01 T01221084  RH  023%=      5-min Rain = 0
KLA1 120305Z 26002KT 12/M08 A3029 RMK A01 T01221084  RH  023%=      5-min Rain = 0
KLA1 120306Z 27002KT 12/M08 A3029 RMK A01 T01211083  RH  023%=      5-min Rain = 0
KLA1 120307Z 27002KT 12/M08 A3029 RMK A01 T01201084  RH  023%=      5-min Rain = 0
KLA1 120308Z 28002KT 12/M08 A3029 RMK A01 T01191084  RH  023%=      5-min Rain = 0
KLA1 120309Z 27002KT 12/M08 A3029 RMK A01 T01181084  RH  023%=      5-min Rain = 0
KLA1 120310Z 27002KT 12/M08 A3029 RMK A01 T01191084  RH  023%=      5-min Rain = 0
KLA1 120311Z 27002KT 12/M08 A303 RMK A01 T01191083  RH  023%=      5-min Rain = 0
KLA1 120312Z 28002KT 12/M08 A303 RMK A01 T01181083  RH  024%=      5-min Rain = 0
KLA1 120313Z 29001KT 12/M08 A303 RMK A01 T01171082  RH  024%=      5-min Rain = 0
KLA1 120314Z 29001KT 12/M08 A303 RMK A01 T01171082  RH  024%=      5-min Rain = 0
KLA1 120315Z 28001KT 12/M08 A303 RMK A01 T01161081  RH  024%=      5-min Rain = 0
KLA1 120316Z 28001KT 12/M08 A303 RMK A01 T01151080  RH  025%=      5-min Rain = 0
KLA1 120317Z 28001KT 11/M08 A303 RMK A01 T01141080  RH  025%=      5-min Rain = 0
KLA1 120318Z 28001KT 11/M08 A303 RMK A01 T01131079  RH  025%=      5-min Rain = 0
KLA1 120319Z 29001KT 11/M08 A303 RMK A01 T01121080  RH  025%=      5-min Rain = 0
KLA1 120320Z 30001KT 11/M08 A303 RMK A01 T01121082  RH  025%=      5-min Rain = 0
KLA1 120321Z 30000KT 11/M08 A303 RMK A01 T01111081  RH  025%=      5-min Rain = 0
KLA1 120322Z 03000KT 11/M08 A303 RMK A01 T01101082  RH  025%=      5-min Rain = 0
KLA1 120323Z 03000KT 11/M08 A303 RMK A01 T01091081  RH  025%=      5-min Rain = 0
KLA1 120324Z 00000KT 11/M08 A303 RMK A01 T01091081  RH  026%=      5-min Rain = 0
KLA1 120325Z 00000KT 11/M08 A303 RMK A01 T01091080  RH  026%=      5-min Rain = 0
KLA1 120326Z 11001KT 11/M08 A303 RMK A01 T01081080  RH  026%=      5-min Rain = 0
KLA1 120327Z 09001KT 11/M08 A3029 RMK A01 T01081079  RH  026%=      5-min Rain = 0
KLA1 120328Z 12000KT 11/M08 A3029 RMK A01 T01071082  RH  026%=      5-min Rain = 0
KLA1 120329Z 00000KT 11/M08 A3029 RMK A01 T01071083  RH  025%=      5-min Rain = 0
KLA1 120330Z 00000KT 11/M08 A303 RMK A01 T01071083  RH  026%=      5-min Rain = 0
KLA1 120331Z 00000KT 11/M08 A303 RMK A01 T01071082  RH  026%=      5-min Rain = 0
KLA1 120332Z 00000KT 11/M08 A303 RMK A01 T01071083  RH  025%=      5-min Rain = 0
KLA1 120333Z 00000KT 11/M08 A303 RMK A01 T01081084  RH  025%=      5-min Rain = 0
KLA1 120334Z 26001KT 11/M08 A303 RMK A01 T01101084  RH  025%=      5-min Rain = 0
KLA1 120335Z 26001KT 11/M08 A303 RMK A01 T01111083  RH  025%=      5-min Rain = 0
KLA1 120336Z 29000KT 11/M08 A303 RMK A01 T01121083  RH  025%=      5-min Rain = 0
KLA1 120337Z 00000KT 11/M08 A303 RMK A01 T01131083  RH  025%=      5-min Rain = 0
KLA1 120338Z 26001KT 11/M08 A303 RMK A01 T01131083  RH  024%=      5-min Rain = 0
KLA1 120339Z 26001KT 11/M08 A303 RMK A01 T01131082  RH  025%=      5-min Rain = 0
KLA1 120340Z 25001KT 11/M08 A303 RMK A01 T01131082  RH  025%=      5-min Rain = 0
KLA1 120341Z 26001KT 11/M08 A303 RMK A01 T01131082  RH  025%=      5-min Rain = 0
KLA1 120342Z 26001KT 11/M08 A303 RMK A01 T01131081  RH  025%=      5-min Rain = 0
KLA1 120343Z 25001KT 11/M08 A303 RMK A01 T01131081  RH  025%=      5-min Rain = 0
KLA1 120344Z 27001KT 11/M08 A303 RMK A01 T01131082  RH  025%=      5-min Rain = 0
KLA1 120345Z 30001KT 11/M08 A303 RMK A01 T01131082  RH  025%=      5-min Rain = 0
KLA1 120346Z 29001KT 11/M08 A303 RMK A01 T01131081  RH  025%=      5-min Rain = 0
KLA1 120347Z 28001KT 11/M08 A303 RMK A01 T01131082  RH  025%=      5-min Rain = 0
KLA1 120348Z 27001KT 11/M08 A303 RMK A01 T01131082  RH  025%=      5-min Rain = 0
KLA1 120349Z 27001KT 11/M08 A303 RMK A01 T01131082  RH  025%=      5-min Rain = 0
KLA1 120350Z 27001KT 11/M08 A303 RMK A01 T01131082  RH  025%=      5-min Rain = 0
KLA1 120351Z 27001KT 11/M08 A303 RMK A01 T01141080  RH  025%=      5-min Rain = 0
KLA1 120352Z 28001KT 11/M08 A303 RMK A01 T01141081  RH  025%=      5-min Rain = 0
KLA1 120353Z 28001KT 11/M08 A3031 RMK A01 T01141081  RH  025%=      5-min Rain = 0
KLA1 120354Z 28002KT 11/M08 A3031 RMK A01 T01141082  RH  025%=      5-min Rain = 0
KLA1 120355Z 28002KT 11/M08 A3031 RMK A01 T01131081  RH  025%=      5-min Rain = 0
KLA1 120356Z 28003KT 11/M08 A3031 RMK A01 T01131080  RH  025%=      5-min Rain = 0
KLA1 120357Z 27003KT 11/M08 A3031 RMK A01 T01121079  RH  025%=      5-min Rain = 0
KLA1 120358Z 27003KT 11/M08 A3031 RMK A01 T01101078  RH  026%=      5-min Rain = 0
KLA1 120359Z 27003KT 11/M08 A3031 RMK A01 T01071078  RH  026%=      5-min Rain = 0
KLA1 120400Z 28003KT 11/M08 A3031 RMK A01 T01061079  RH  027%=      5-min Rain = 0
KLA1 120401Z 28003KT 11/M08 A3031 RMK A01 T01051079  RH  027%=      5-min Rain = 0
KLA1 120402Z 29003KT 10/M08 A3031 RMK A01 T01041079  RH  027%=      5-min Rain = 0
KLA1 120403Z 30002KT 10/M08 A3031 RMK A01 T01031078  RH  027%=      5-min Rain = 0
KLA1 120404Z 30002KT 10/M08 A3031 RMK A01 T01031077  RH  027%=      5-min Rain = 0
KLA1 120405Z 32002KT 10/M08 A3031 RMK A01 T01021077  RH  027%=      5-min Rain = 0
KLA1 120406Z 34002KT 10/M08 A3031 RMK A01 T01011078  RH  028%=      5-min Rain = 0
KLA1 120407Z 01001KT 10/M08 A3031 RMK A01 T01001079  RH  028%=      5-min Rain = 0
KLA1 120408Z 00001KT 10/M08 A3031 RMK A01 T01001079  RH  027%=      5-min Rain = 0
KLA1 120409Z 34003KT 10/M08 A3031 RMK A01 T01011080  RH  027%=      5-min Rain = 0
KLA1 120410Z 34002KT 10/M08 A3031 RMK A01 T01021080  RH  027%=      5-min Rain = 0
KLA1 120411Z 01002KT 10/M08 A3031 RMK A01 T01021080  RH  027%=      5-min Rain = 0
KLA1 120412Z 02002KT 10/M08 A3031 RMK A01 T01041081  RH  026%=      5-min Rain = 0
KLA1 120413Z 36001KT 11/M08 A3031 RMK A01 T01061082  RH  026%=      5-min Rain = 0
KLA1 120414Z 36000KT 11/M08 A3031 RMK A01 T01081082  RH  026%=      5-min Rain = 0
KLA1 120415Z 35000KT 11/M08 A3031 RMK A01 T01081081  RH  026%=      5-min Rain = 0
KLA1 120416Z 35000KT 11/M08 A3031 RMK A01 T01081082  RH  026%=      5-min Rain = 0
KLA1 120417Z 02001KT 11/M08 A3031 RMK A01 T01071082  RH  026%=      5-min Rain = 0
KLA1 120418Z 00001KT 11/M08 A3031 RMK A01 T01071081  RH  026%=      5-min Rain = 0
KLA1 120419Z 01002KT 11/M08 A3031 RMK A01 T01071082  RH  026%=      5-min Rain = 0
KLA1 120420Z 00001KT 11/M08 A3031 RMK A01 T01081083  RH  025%=      5-min Rain = 0
KLA1 120421Z 35001KT 11/M08 A3031 RMK A01 T01091083  RH  025%=      5-min Rain = 0
KLA1 120422Z 00001KT 11/M08 A3031 RMK A01 T01091081  RH  026%=      5-min Rain = 0
KLA1 120423Z 00001KT 11/M08 A3031 RMK A01 T01071081  RH  026%=      5-min Rain = 0
KLA1 120424Z 02001KT 11/M08 A3031 RMK A01 T01051081  RH  026%=      5-min Rain = 0
KLA1 120425Z 02001KT 11/M08 A3031 RMK A01 T01051082  RH  026%=      5-min Rain = 0
KLA1 120426Z 00001KT 10/M08 A3031 RMK A01 T01041082  RH  026%=      5-min Rain = 0
KLA1 120427Z 00002KT 11/M08 A3031 RMK A01 T01051082  RH  026%=      5-min Rain = 0
KLA1 120428Z 00002KT 11/M08 A3031 RMK A01 T01051083  RH  026%=      5-min Rain = 0
KLA1 120429Z 01001KT 11/M08 A3031 RMK A01 T01051083  RH  026%=      5-min Rain = 0
KLA1 120430Z 01001KT 11/M08 A3031 RMK A01 T01051083  RH  026%=      5-min Rain = 0
KLA1 120431Z 01001KT 11/M08 A3031 RMK A01 T01051083  RH  026%=      5-min Rain = 0
KLA1 120432Z 01001KT 11/M08 A3031 RMK A01 T01051083  RH  026%=      5-min Rain = 0
KLA1 120433Z 02001KT 11/M08 A3031 RMK A01 T01051083  RH  026%=      5-min Rain = 0
KLA1 120434Z 01002KT 11/M08 A3031 RMK A01 T01051082  RH  026%=      5-min Rain = 0
KLA1 120435Z 01001KT 11/M08 A3031 RMK A01 T01051083  RH  026%=      5-min Rain = 0
KLA1 120436Z 02001KT 11/M08 A3031 RMK A01 T01051083  RH  026%=      5-min Rain = 0
KLA1 120437Z 02002KT 11/M08 A3031 RMK A01 T01051083  RH  026%=      5-min Rain = 0
KLA1 120438Z 01001KT 10/M08 A3031 RMK A01 T01041083  RH  026%=      5-min Rain = 0
KLA1 120439Z 01001KT 10/M08 A3031 RMK A01 T01041083  RH  026%=      5-min Rain = 0
KLA1 120440Z 01001KT 10/M08 A3031 RMK A01 T01031083  RH  026%=      5-min Rain = 0
KLA1 120441Z 00001KT 10/M08 A3031 RMK A01 T01031083  RH  026%=      5-min Rain = 0
KLA1 120442Z 00001KT 10/M08 A3031 RMK A01 T01031083  RH  026%=      5-min Rain = 0
KLA1 120443Z 00001KT 10/M08 A3031 RMK A01 T01031083  RH  026%=      5-min Rain = 0
KLA1 120444Z 02002KT 10/M08 A3031 RMK A01 T01031084  RH  026%=      5-min Rain = 0
KLA1 120445Z 02002KT 10/M08 A3031 RMK A01 T01031084  RH  026%=      5-min Rain = 0
KLA1 120446Z 01002KT 10/M08 A3031 RMK A01 T01031084  RH  026%=      5-min Rain = 0
KLA1 120447Z 03002KT 10/M08 A3031 RMK A01 T01031084  RH  026%=      5-min Rain = 0
KLA1 120448Z 03002KT 10/M08 A3031 RMK A01 T01031084  RH  026%=      5-min Rain = 0
KLA1 120449Z 03002KT 10/M08 A3031 RMK A01 T01031083  RH  026%=      5-min Rain = 0
KLA1 120450Z 03002KT 10/M08 A3031 RMK A01 T01021083  RH  026%=      5-min Rain = 0
KLA1 120451Z 03002KT 10/M08 A3031 RMK A01 T01001083  RH  027%=      5-min Rain = 0
KLA1 120452Z 02001KT 10/M08 A3031 RMK A01 T01001083  RH  027%=      5-min Rain = 0
KLA1 120453Z 03002KT 10/M08 A3031 RMK A01 T01001084  RH  027%=      5-min Rain = 0
KLA1 120454Z 04002KT 10/M08 A3031 RMK A01 T01001084  RH  027%=      5-min Rain = 0
KLA1 120455Z 04002KT 10/M08 A3031 RMK A01 T00991084  RH  027%=      5-min Rain = 0
KLA1 120456Z 04002KT 10/M08 A3031 RMK A01 T00991083  RH  027%=      5-min Rain = 0
KLA1 120457Z 04002KT 10/M08 A3031 RMK A01 T00981084  RH  027%=      5-min Rain = 0
KLA1 120458Z 03002KT 10/M08 A3031 RMK A01 T00981083  RH  027%=      5-min Rain = 0
KLA1 120459Z 03002KT 10/M08 A3031 RMK A01 T00971083  RH  027%=      5-min Rain = 0

Page generated in 0.0486 seconds.